HAZ765 ZSPD-NZAA
Flight info
| Callsign | HAZ765 |
|---|---|
| Flight time | 10h 47m |
| Altitude | 35000 |
| Route | LAM82D LAMEN A593 SADLI Y590 BEDAR Y591 ISPIT Z41 AGIKA G339 NATSS/N0495F370 G339 UNZ A597 KAKOP/N0489F390 A597 LEKAX/N0485F410 A597 DUGAN |
| Aircraft | A359/H-SDE2E3GHIJ3J4J5LM1ORWXY/LB1D1 |
Departure
| Time | 2026-05-06 16:37 |
|---|---|
| Airport | Shanghai Pudong International Airport (ZSPD) |
Arrival
| Time | 2026-05-07 03:25 |
|---|---|
| Airport | Auckland International Airport (NZAA) |
| Time | Latitude | Longitude | Altitude | Speed | Heading |
|---|---|---|---|---|---|
| 2026-05-06 16:21 | 31.13666 | 121.81376 | 29 ft | 0 kts | 252° |
| 2026-05-06 16:26 | 31.13665 | 121.81369 | 29 ft | 6 kts | 252° |
| 2026-05-06 16:26 | 31.13671 | 121.81392 | 29 ft | 4 kts | 252° |
| 2026-05-06 16:26 | 31.13679 | 121.81421 | 27 ft | 3 kts | 252° |
| 2026-05-06 16:27 | 31.13684 | 121.81444 | 27 ft | 4 kts | 280° |
| 2026-05-06 16:27 | 31.13678 | 121.81463 | 25 ft | 4 kts | 322° |
| 2026-05-06 16:27 | 31.13655 | 121.81478 | 27 ft | 4 kts | 340° |
| 2026-05-06 16:27 | 31.13651 | 121.81480 | 28 ft | 5 kts | 342° |
| 2026-05-06 16:28 | 31.13659 | 121.81477 | 27 ft | 0 kts | 342° |
| 2026-05-06 16:31 | 31.13668 | 121.81474 | 26 ft | 3 kts | 341° |
| 2026-05-06 16:31 | 31.13705 | 121.81459 | 28 ft | 8 kts | 342° |
| 2026-05-06 16:32 | 31.13779 | 121.81431 | 29 ft | 14 kts | 342° |
| 2026-05-06 16:32 | 31.13886 | 121.81391 | 29 ft | 18 kts | 343° |
| 2026-05-06 16:32 | 31.14019 | 121.81342 | 29 ft | 22 kts | 342° |
| 2026-05-06 16:32 | 31.14179 | 121.81282 | 28 ft | 26 kts | 342° |
| 2026-05-06 16:33 | 31.14355 | 121.81214 | 29 ft | 27 kts | 342° |
| 2026-05-06 16:33 | 31.14452 | 121.81231 | 29 ft | 15 kts | 53° |
| 2026-05-06 16:33 | 31.14496 | 121.81356 | 29 ft | 18 kts | 72° |
| 2026-05-06 16:34 | 31.14711 | 121.81403 | 29 ft | 22 kts | 342° |
| 2026-05-06 16:34 | 31.14871 | 121.81343 | 29 ft | 26 kts | 341° |
| 2026-05-06 16:34 | 31.15051 | 121.81272 | 29 ft | 29 kts | 341° |
| 2026-05-06 16:34 | 31.15238 | 121.81202 | 29 ft | 26 kts | 342° |
| 2026-05-06 16:35 | 31.15423 | 121.81133 | 28 ft | 30 kts | 342° |
| 2026-05-06 16:35 | 31.15613 | 121.81061 | 28 ft | 30 kts | 342° |
| 2026-05-06 16:35 | 31.15762 | 121.81005 | 28 ft | 18 kts | 342° |
| 2026-05-06 16:35 | 31.15847 | 121.81057 | 28 ft | 16 kts | 65° |
| 2026-05-06 16:36 | 31.15850 | 121.81182 | 28 ft | 15 kts | 127° |
| 2026-05-06 16:36 | 31.15754 | 121.81235 | 28 ft | 17 kts | 160° |
| 2026-05-06 16:36 | 31.15621 | 121.81287 | 27 ft | 33 kts | 161° |
| 2026-05-06 16:36 | 31.15204 | 121.81443 | 29 ft | 92 kts | 162° |
| 2026-05-06 16:37 | 31.14420 | 121.81739 | 29 ft | 144 kts | 162° |
| 2026-05-06 16:37 | 31.13338 | 121.82151 | 182 ft | 175 kts | 162° |
| 2026-05-06 16:37 | 31.12232 | 121.82592 | 917 ft | 162 kts | 158° |
| 2026-05-06 16:37 | 31.11255 | 121.83230 | 1598 ft | 162 kts | 150° |
| 2026-05-06 16:38 | 31.10316 | 121.83971 | 2180 ft | 165 kts | 149° |
| 2026-05-06 16:38 | 31.09345 | 121.84724 | 2529 ft | 170 kts | 149° |
| 2026-05-06 16:38 | 31.08337 | 121.85488 | 2874 ft | 175 kts | 149° |
| 2026-05-06 16:38 | 31.07295 | 121.86261 | 3201 ft | 183 kts | 149° |
| 2026-05-06 16:39 | 31.06171 | 121.87086 | 3400 ft | 198 kts | 150° |
| 2026-05-06 16:39 | 31.04957 | 121.87971 | 3583 ft | 214 kts | 150° |
| 2026-05-06 16:39 | 31.03647 | 121.88920 | 3768 ft | 231 kts | 150° |
| 2026-05-06 16:39 | 31.02231 | 121.89947 | 3962 ft | 249 kts | 150° |
| 2026-05-06 16:40 | 31.00786 | 121.91152 | 4308 ft | 261 kts | 142° |
| 2026-05-06 16:40 | 30.99399 | 121.92570 | 4782 ft | 268 kts | 139° |
| 2026-05-06 16:40 | 30.98010 | 121.94055 | 5282 ft | 273 kts | 138° |
| 2026-05-06 16:40 | 30.96605 | 121.95562 | 5874 ft | 275 kts | 139° |
| 2026-05-06 16:41 | 30.95191 | 121.97083 | 6479 ft | 278 kts | 137° |
| 2026-05-06 16:41 | 30.94000 | 121.98862 | 7012 ft | 283 kts | 117° |
| 2026-05-06 16:41 | 30.93532 | 122.01059 | 7543 ft | 288 kts | 90° |
| 2026-05-06 16:41 | 30.93887 | 122.03362 | 8144 ft | 291 kts | 73° |
| 2026-05-06 16:42 | 30.94519 | 122.05615 | 8746 ft | 294 kts | 71° |
| 2026-05-06 16:42 | 30.95189 | 122.07884 | 9345 ft | 298 kts | 71° |
| 2026-05-06 16:42 | 30.95856 | 122.10182 | 9927 ft | 302 kts | 71° |
| 2026-05-06 16:42 | 30.96530 | 122.12536 | 10310 ft | 313 kts | 71° |
| 2026-05-06 16:43 | 30.97187 | 122.14853 | 10544 ft | 327 kts | 71° |
| 2026-05-06 16:43 | 30.97906 | 122.17426 | 10799 ft | 341 kts | 72° |
| 2026-05-06 16:43 | 30.98651 | 122.20112 | 11061 ft | 355 kts | 72° |
| 2026-05-06 16:43 | 30.99421 | 122.22895 | 11315 ft | 368 kts | 72° |
| 2026-05-06 16:44 | 30.99977 | 122.25856 | 11534 ft | 380 kts | 85° |
| 2026-05-06 16:44 | 31.00069 | 122.28978 | 11787 ft | 392 kts | 90° |
| 2026-05-06 16:44 | 31.00055 | 122.32192 | 12052 ft | 401 kts | 91° |
| 2026-05-06 16:44 | 31.00034 | 122.35475 | 12406 ft | 408 kts | 91° |
| 2026-05-06 16:45 | 31.00020 | 122.38794 | 12838 ft | 411 kts | 90° |
| 2026-05-06 16:45 | 31.00010 | 122.42137 | 13270 ft | 414 kts | 90° |
| 2026-05-06 16:45 | 31.00011 | 122.45506 | 13716 ft | 418 kts | 90° |
| 2026-05-06 16:45 | 31.00015 | 122.48905 | 14127 ft | 420 kts | 90° |
| 2026-05-06 16:46 | 31.00020 | 122.52318 | 14498 ft | 423 kts | 90° |
| 2026-05-06 16:46 | 31.00024 | 122.55764 | 14892 ft | 426 kts | 90° |
| 2026-05-06 16:46 | 31.00028 | 122.59223 | 15281 ft | 428 kts | 90° |
| 2026-05-06 16:46 | 31.00031 | 122.62706 | 15667 ft | 431 kts | 90° |
| 2026-05-06 16:47 | 31.00033 | 122.66204 | 16054 ft | 433 kts | 90° |
| 2026-05-06 16:47 | 31.00034 | 122.69724 | 16438 ft | 436 kts | 90° |
| 2026-05-06 16:47 | 31.00034 | 122.73265 | 16829 ft | 438 kts | 90° |
| 2026-05-06 16:47 | 31.00033 | 122.76829 | 17213 ft | 441 kts | 90° |
| 2026-05-06 16:48 | 31.00031 | 122.80409 | 17597 ft | 443 kts | 90° |
| 2026-05-06 16:48 | 31.00028 | 122.84017 | 17978 ft | 446 kts | 90° |
| 2026-05-06 16:48 | 31.00024 | 122.87597 | 18348 ft | 449 kts | 90° |
| 2026-05-06 16:48 | 31.00019 | 122.91250 | 18688 ft | 452 kts | 90° |
| 2026-05-06 16:49 | 31.00071 | 122.94920 | 19042 ft | 454 kts | 86° |
| 2026-05-06 16:49 | 31.00486 | 122.98569 | 19398 ft | 456 kts | 77° |
| 2026-05-06 16:49 | 31.01222 | 123.02169 | 19774 ft | 458 kts | 74° |
| 2026-05-06 16:49 | 31.02097 | 123.05743 | 20167 ft | 459 kts | 72° |
| 2026-05-06 16:50 | 31.03061 | 123.09307 | 20547 ft | 462 kts | 71° |
| 2026-05-06 16:50 | 31.04072 | 123.12867 | 20916 ft | 464 kts | 70° |
| 2026-05-06 16:50 | 31.05104 | 123.16452 | 21297 ft | 467 kts | 70° |
| 2026-05-06 16:50 | 31.05789 | 123.18834 | 21550 ft | 469 kts | 70° |
| 2026-05-06 16:51 | 31.07169 | 123.23677 | 22061 ft | 472 kts | 70° |
| 2026-05-06 16:51 | 31.08197 | 123.27327 | 22421 ft | 475 kts | 71° |
| 2026-05-06 16:51 | 31.09225 | 123.31006 | 22825 ft | 478 kts | 71° |
| 2026-05-06 16:51 | 31.10255 | 123.34709 | 23218 ft | 481 kts | 71° |
| 2026-05-06 16:52 | 31.11288 | 123.38434 | 23611 ft | 484 kts | 71° |
| 2026-05-06 16:52 | 31.12325 | 123.42182 | 23926 ft | 487 kts | 71° |
| 2026-05-06 16:52 | 31.13368 | 123.45957 | 24249 ft | 490 kts | 71° |
| 2026-05-06 16:52 | 31.14419 | 123.49761 | 24565 ft | 494 kts | 71° |
| 2026-05-06 16:53 | 31.15474 | 123.53586 | 24883 ft | 497 kts | 71° |
| 2026-05-06 16:53 | 31.16535 | 123.57433 | 25192 ft | 500 kts | 71° |
| 2026-05-06 16:53 | 31.17587 | 123.61252 | 25493 ft | 503 kts | 71° |
| 2026-05-06 16:53 | 31.18662 | 123.65163 | 25807 ft | 507 kts | 71° |
| 2026-05-06 16:54 | 31.19740 | 123.69086 | 26103 ft | 510 kts | 71° |
| 2026-05-06 16:54 | 31.20829 | 123.73060 | 26393 ft | 514 kts | 72° |
| 2026-05-06 16:54 | 31.21920 | 123.77043 | 26702 ft | 517 kts | 72° |
| 2026-05-06 16:54 | 31.23018 | 123.81056 | 26994 ft | 520 kts | 72° |
| 2026-05-06 16:55 | 31.24120 | 123.85093 | 27273 ft | 523 kts | 72° |
| 2026-05-06 16:55 | 31.25229 | 123.89158 | 27540 ft | 526 kts | 72° |
| 2026-05-06 16:55 | 31.26342 | 123.93245 | 27815 ft | 530 kts | 72° |
| 2026-05-06 16:55 | 31.27462 | 123.97362 | 28068 ft | 533 kts | 72° |
| 2026-05-06 16:56 | 31.28587 | 124.01503 | 28312 ft | 536 kts | 72° |
| 2026-05-06 16:56 | 31.29715 | 124.05662 | 28557 ft | 539 kts | 72° |
| 2026-05-06 16:56 | 31.30850 | 124.09853 | 28817 ft | 542 kts | 72° |
| 2026-05-06 16:56 | 31.31990 | 124.14070 | 29048 ft | 545 kts | 73° |
| 2026-05-06 16:57 | 31.33133 | 124.18303 | 29304 ft | 547 kts | 73° |
| 2026-05-06 16:57 | 31.34277 | 124.22543 | 29651 ft | 547 kts | 73° |
| 2026-05-06 16:57 | 31.35035 | 124.25358 | 29853 ft | 547 kts | 73° |
| 2026-05-06 16:57 | 31.36565 | 124.31046 | 30216 ft | 549 kts | 73° |
| 2026-05-06 16:58 | 31.37325 | 124.33877 | 30375 ft | 550 kts | 73° |
| 2026-05-06 16:58 | 31.38469 | 124.38143 | 30645 ft | 550 kts | 73° |
| 2026-05-06 16:58 | 31.39614 | 124.42418 | 30922 ft | 551 kts | 73° |
| 2026-05-06 16:58 | 31.40759 | 124.46698 | 31189 ft | 551 kts | 73° |
| 2026-05-06 16:59 | 31.41902 | 124.50978 | 31422 ft | 552 kts | 74° |
| 2026-05-06 16:59 | 31.43047 | 124.55271 | 31681 ft | 552 kts | 74° |
| 2026-05-06 16:59 | 31.44190 | 124.59567 | 31922 ft | 553 kts | 74° |
| 2026-05-06 16:59 | 31.45332 | 124.63863 | 32166 ft | 553 kts | 74° |
| 2026-05-06 17:00 | 31.46475 | 124.68169 | 32383 ft | 554 kts | 74° |
| 2026-05-06 17:00 | 31.47988 | 124.73881 | 32688 ft | 555 kts | 74° |
| 2026-05-06 17:00 | 31.48761 | 124.76802 | 32843 ft | 555 kts | 74° |
| 2026-05-06 17:00 | 31.49902 | 124.81118 | 33067 ft | 556 kts | 75° |
| 2026-05-06 17:01 | 31.51042 | 124.85440 | 33266 ft | 556 kts | 75° |
| 2026-05-06 17:01 | 31.52186 | 124.89782 | 33479 ft | 557 kts | 75° |
| 2026-05-06 17:01 | 31.53327 | 124.94120 | 33691 ft | 558 kts | 75° |
| 2026-05-06 17:01 | 31.54471 | 124.98477 | 33866 ft | 559 kts | 75° |
| 2026-05-06 17:02 | 31.55613 | 125.02833 | 34022 ft | 560 kts | 75° |
| 2026-05-06 17:02 | 31.56742 | 125.07147 | 34171 ft | 561 kts | 75° |
| 2026-05-06 17:02 | 31.57884 | 125.11514 | 34342 ft | 561 kts | 75° |
| 2026-05-06 17:02 | 31.59028 | 125.15892 | 34518 ft | 561 kts | 75° |
| 2026-05-06 17:03 | 31.60172 | 125.20281 | 34658 ft | 562 kts | 75° |
| 2026-05-06 17:03 | 31.61312 | 125.24661 | 34823 ft | 562 kts | 75° |
| 2026-05-06 17:03 | 31.62453 | 125.29055 | 34992 ft | 562 kts | 75° |
| 2026-05-06 17:04 | 31.64736 | 125.37878 | 35044 ft | 569 kts | 75° |
| 2026-05-06 17:04 | 31.67041 | 125.46794 | 35042 ft | 571 kts | 75° |
| 2026-05-06 17:05 | 31.69342 | 125.55722 | 35043 ft | 571 kts | 75° |
| 2026-05-06 17:05 | 31.71637 | 125.64655 | 35041 ft | 571 kts | 75° |
| 2026-05-06 17:06 | 31.73782 | 125.73640 | 35040 ft | 571 kts | 78° |
| 2026-05-06 17:06 | 31.75757 | 125.82694 | 35042 ft | 572 kts | 78° |
| 2026-05-06 17:07 | 31.77713 | 125.91762 | 35043 ft | 573 kts | 78° |
| 2026-05-06 17:07 | 31.79673 | 126.00769 | 35040 ft | 573 kts | 78° |
| 2026-05-06 17:08 | 31.81654 | 126.09849 | 35041 ft | 574 kts | 78° |
| 2026-05-06 17:08 | 31.83636 | 126.18950 | 35039 ft | 575 kts | 78° |
| 2026-05-06 17:09 | 31.85603 | 126.28050 | 34623 ft | 569 kts | 75° |
| 2026-05-06 17:09 | 31.86548 | 126.32465 | 34845 ft | 544 kts | 75° |
| 2026-05-06 17:09 | 31.87460 | 126.36705 | 35013 ft | 529 kts | 75° |
| 2026-05-06 17:10 | 31.89253 | 126.45007 | 35041 ft | 521 kts | 75° |
| 2026-05-06 17:10 | 31.91051 | 126.53269 | 35040 ft | 520 kts | 74° |
| 2026-05-06 17:11 | 31.92876 | 126.61505 | 35039 ft | 520 kts | 74° |
| 2026-05-06 17:11 | 31.94697 | 126.69740 | 35041 ft | 520 kts | 74° |
| 2026-05-06 17:12 | 31.96507 | 126.77972 | 35037 ft | 519 kts | 74° |
| 2026-05-06 17:12 | 31.98309 | 126.86210 | 35036 ft | 519 kts | 74° |
| 2026-05-06 17:13 | 32.00103 | 126.94442 | 35038 ft | 519 kts | 74° |
| 2026-05-06 17:13 | 32.01891 | 127.02671 | 35040 ft | 518 kts | 74° |
| 2026-05-06 17:14 | 32.03734 | 127.10880 | 35029 ft | 517 kts | 70° |
| 2026-05-06 17:14 | 32.06405 | 127.18726 | 35041 ft | 515 kts | 65° |
| 2026-05-06 17:15 | 32.09124 | 127.26543 | 35028 ft | 517 kts | 71° |
| 2026-05-06 17:15 | 32.10141 | 127.34906 | 35028 ft | 519 kts | 91° |
| 2026-05-06 17:15 | 32.09712 | 127.39128 | 35027 ft | 519 kts | 102° |
| 2026-05-06 17:16 | 32.08661 | 127.43131 | 35039 ft | 519 kts | 113° |
| 2026-05-06 17:16 | 32.05298 | 127.50640 | 35028 ft | 518 kts | 121° |
| 2026-05-06 17:17 | 32.01600 | 127.57935 | 35036 ft | 518 kts | 121° |
| 2026-05-06 17:17 | 31.97893 | 127.65225 | 35037 ft | 518 kts | 121° |
| 2026-05-06 17:18 | 31.94233 | 127.72534 | 35022 ft | 518 kts | 120° |
| 2026-05-06 17:18 | 31.90592 | 127.79853 | 35035 ft | 518 kts | 120° |
| 2026-05-06 17:19 | 31.86954 | 127.87161 | 35020 ft | 518 kts | 120° |
| 2026-05-06 17:19 | 31.83308 | 127.94466 | 35036 ft | 517 kts | 120° |
| 2026-05-06 17:20 | 31.79663 | 128.01752 | 35034 ft | 517 kts | 120° |
| 2026-05-06 17:20 | 31.76015 | 128.09029 | 35032 ft | 517 kts | 120° |
| 2026-05-06 17:21 | 31.72355 | 128.16315 | 35034 ft | 517 kts | 120° |
| 2026-05-06 17:21 | 31.68697 | 128.23584 | 35033 ft | 517 kts | 120° |
| 2026-05-06 17:22 | 31.65060 | 128.30796 | 35036 ft | 517 kts | 120° |
| 2026-05-06 17:22 | 31.61395 | 128.38051 | 35022 ft | 517 kts | 120° |
| 2026-05-06 17:23 | 31.57722 | 128.45308 | 35038 ft | 517 kts | 120° |
| 2026-05-06 17:23 | 31.54052 | 128.52546 | 35034 ft | 517 kts | 120° |
| 2026-05-06 17:24 | 31.50373 | 128.59787 | 35022 ft | 517 kts | 120° |
| 2026-05-06 17:24 | 31.46694 | 128.67014 | 35042 ft | 516 kts | 120° |
| 2026-05-06 17:25 | 31.43013 | 128.74231 | 35023 ft | 517 kts | 120° |
| 2026-05-06 17:25 | 31.39322 | 128.81457 | 35033 ft | 517 kts | 120° |
| 2026-05-06 17:26 | 31.35630 | 128.88669 | 35037 ft | 517 kts | 120° |
| 2026-05-06 17:26 | 31.31931 | 128.95881 | 35022 ft | 517 kts | 120° |
| 2026-05-06 17:27 | 31.28229 | 129.03085 | 35028 ft | 517 kts | 120° |
| 2026-05-06 17:27 | 31.24518 | 129.10293 | 35025 ft | 517 kts | 120° |
| 2026-05-06 17:28 | 31.20804 | 129.17495 | 35040 ft | 518 kts | 120° |
| 2026-05-06 17:28 | 31.17084 | 129.24694 | 35028 ft | 518 kts | 120° |
| 2026-05-06 17:29 | 31.13357 | 129.31893 | 35039 ft | 518 kts | 120° |
| 2026-05-06 17:29 | 31.09622 | 129.39095 | 35033 ft | 519 kts | 120° |
| 2026-05-06 17:30 | 31.05905 | 129.46248 | 35027 ft | 519 kts | 120° |
| 2026-05-06 17:30 | 31.02162 | 129.53438 | 35036 ft | 519 kts | 120° |
| 2026-05-06 17:31 | 30.98407 | 129.60637 | 35028 ft | 520 kts | 120° |
| 2026-05-06 17:31 | 30.94649 | 129.67829 | 35025 ft | 520 kts | 120° |
| 2026-05-06 17:32 | 30.90882 | 129.75026 | 35034 ft | 520 kts | 120° |
| 2026-05-06 17:32 | 30.87112 | 129.82215 | 35029 ft | 521 kts | 120° |
| 2026-05-06 17:33 | 30.83334 | 129.89405 | 35032 ft | 521 kts | 120° |
| 2026-05-06 17:33 | 30.79548 | 129.96599 | 35021 ft | 521 kts | 120° |
| 2026-05-06 17:34 | 30.75758 | 130.03785 | 35030 ft | 521 kts | 120° |
| 2026-05-06 17:34 | 30.71967 | 130.10960 | 35027 ft | 520 kts | 120° |
| 2026-05-06 17:35 | 30.68176 | 130.18123 | 35027 ft | 520 kts | 120° |
| 2026-05-06 17:35 | 30.64384 | 130.25275 | 35027 ft | 519 kts | 120° |
| 2026-05-06 17:36 | 30.58704 | 130.35963 | 35022 ft | 518 kts | 120° |
| 2026-05-06 17:36 | 30.54927 | 130.43053 | 35030 ft | 516 kts | 120° |
| 2026-05-06 17:37 | 30.51151 | 130.50131 | 35024 ft | 515 kts | 120° |
| 2026-05-06 17:37 | 30.47380 | 130.57188 | 35023 ft | 514 kts | 121° |
| 2026-05-06 17:38 | 30.43611 | 130.64226 | 35024 ft | 513 kts | 121° |
| 2026-05-06 17:38 | 30.39846 | 130.71247 | 35027 ft | 513 kts | 121° |
| 2026-05-06 17:39 | 30.36105 | 130.78208 | 35028 ft | 512 kts | 122° |
| 2026-05-06 17:39 | 30.32341 | 130.85201 | 35180 ft | 510 kts | 122° |
| 2026-05-06 17:40 | 30.30474 | 130.88665 | 35513 ft | 505 kts | 123° |
| 2026-05-06 17:40 | 30.28617 | 130.92107 | 35814 ft | 502 kts | 123° |
| 2026-05-06 17:40 | 30.26770 | 130.95527 | 36030 ft | 501 kts | 123° |
| 2026-05-06 17:40 | 30.24926 | 130.98940 | 36251 ft | 499 kts | 123° |
| 2026-05-06 17:41 | 30.23087 | 131.02339 | 36448 ft | 498 kts | 123° |
| 2026-05-06 17:41 | 30.21252 | 131.05729 | 36646 ft | 496 kts | 124° |
| 2026-05-06 17:41 | 30.19422 | 131.09107 | 36842 ft | 495 kts | 124° |
| 2026-05-06 17:41 | 30.17598 | 131.12471 | 36988 ft | 494 kts | 124° |
| 2026-05-06 17:42 | 30.13925 | 131.19231 | 37010 ft | 499 kts | 125° |
| 2026-05-06 17:42 | 30.10232 | 131.26020 | 37013 ft | 498 kts | 125° |
| 2026-05-06 17:43 | 30.06546 | 131.32787 | 37010 ft | 497 kts | 125° |
| 2026-05-06 17:43 | 30.02849 | 131.39528 | 36991 ft | 496 kts | 128° |
| 2026-05-06 17:44 | 29.98327 | 131.45389 | 37004 ft | 486 kts | 144° |
| 2026-05-06 17:44 | 29.92842 | 131.49871 | 37004 ft | 481 kts | 150° |
| 2026-05-06 17:45 | 29.87206 | 131.54015 | 37000 ft | 480 kts | 151° |
| 2026-05-06 17:45 | 29.81562 | 131.58123 | 37005 ft | 479 kts | 151° |
| 2026-05-06 17:46 | 29.75986 | 131.62225 | 37003 ft | 479 kts | 151° |
| 2026-05-06 17:46 | 29.71296 | 131.65696 | 37001 ft | 478 kts | 151° |
| 2026-05-06 17:47 | 29.59400 | 131.74502 | 37002 ft | 475 kts | 151° |
| 2026-05-06 17:48 | 29.54837 | 131.78112 | 36999 ft | 475 kts | 149° |
| 2026-05-06 17:48 | 29.49501 | 131.82585 | 37003 ft | 474 kts | 148° |
| 2026-05-06 17:49 | 29.44185 | 131.87057 | 37003 ft | 473 kts | 149° |
| 2026-05-06 17:49 | 29.38870 | 131.91480 | 37001 ft | 471 kts | 149° |
| 2026-05-06 17:50 | 29.33568 | 131.95861 | 37001 ft | 469 kts | 149° |
| 2026-05-06 17:50 | 29.28312 | 132.00190 | 36999 ft | 467 kts | 149° |
| 2026-05-06 17:51 | 29.23042 | 132.04527 | 37004 ft | 465 kts | 150° |
| 2026-05-06 17:51 | 29.17797 | 132.08839 | 37003 ft | 463 kts | 150° |
| 2026-05-06 17:52 | 29.12582 | 132.13122 | 37004 ft | 461 kts | 150° |
| 2026-05-06 17:52 | 29.07385 | 132.17384 | 37007 ft | 459 kts | 150° |
| 2026-05-06 17:53 | 29.02205 | 132.21628 | 37008 ft | 457 kts | 150° |
| 2026-05-06 17:53 | 28.97044 | 132.25849 | 37007 ft | 455 kts | 150° |
| 2026-05-06 17:54 | 28.91899 | 132.30053 | 37007 ft | 454 kts | 150° |
| 2026-05-06 17:54 | 28.86773 | 132.34236 | 37004 ft | 453 kts | 150° |
| 2026-05-06 17:55 | 28.81651 | 132.38410 | 37008 ft | 452 kts | 150° |
| 2026-05-06 17:55 | 28.76545 | 132.42566 | 37006 ft | 451 kts | 150° |
| 2026-05-06 17:56 | 28.71434 | 132.46721 | 37003 ft | 451 kts | 150° |
| 2026-05-06 17:56 | 28.66321 | 132.50873 | 37004 ft | 451 kts | 150° |
| 2026-05-06 17:57 | 28.61208 | 132.55019 | 37008 ft | 451 kts | 150° |
| 2026-05-06 17:57 | 28.56087 | 132.59168 | 37007 ft | 452 kts | 150° |
| 2026-05-06 17:58 | 28.50954 | 132.63320 | 37005 ft | 453 kts | 150° |
| 2026-05-06 17:58 | 28.45807 | 132.67478 | 36997 ft | 455 kts | 150° |
| 2026-05-06 17:59 | 28.40644 | 132.71646 | 37000 ft | 456 kts | 150° |
| 2026-05-06 17:59 | 28.35458 | 132.75826 | 36993 ft | 458 kts | 150° |
| 2026-05-06 18:00 | 28.30256 | 132.80009 | 37006 ft | 459 kts | 150° |
| 2026-05-06 18:00 | 28.25041 | 132.84196 | 37000 ft | 460 kts | 150° |
| 2026-05-06 18:01 | 28.19808 | 132.88393 | 36997 ft | 461 kts | 150° |
| 2026-05-06 18:01 | 28.14567 | 132.92592 | 36998 ft | 462 kts | 150° |
| 2026-05-06 18:02 | 28.09345 | 132.96770 | 37000 ft | 463 kts | 151° |
| 2026-05-06 18:02 | 28.04084 | 133.00975 | 36998 ft | 463 kts | 151° |
| 2026-05-06 18:03 | 27.98813 | 133.05182 | 36994 ft | 464 kts | 151° |
| 2026-05-06 18:03 | 27.93531 | 133.09393 | 36999 ft | 465 kts | 151° |
| 2026-05-06 18:04 | 27.88246 | 133.13601 | 36997 ft | 465 kts | 151° |
| 2026-05-06 18:04 | 27.82963 | 133.17811 | 36998 ft | 465 kts | 151° |
| 2026-05-06 18:05 | 27.77675 | 133.22024 | 36994 ft | 465 kts | 151° |
| 2026-05-06 18:05 | 27.72383 | 133.26235 | 37000 ft | 466 kts | 151° |
| 2026-05-06 18:06 | 27.67084 | 133.30445 | 36997 ft | 466 kts | 151° |
| 2026-05-06 18:06 | 27.61772 | 133.34660 | 36998 ft | 467 kts | 150° |
| 2026-05-06 18:08 | 27.41348 | 133.50821 | 37000 ft | 471 kts | 150° |
| 2026-05-06 18:09 | 27.35993 | 133.55045 | 36997 ft | 471 kts | 150° |
| 2026-05-06 18:09 | 27.30619 | 133.59279 | 37002 ft | 472 kts | 150° |
| 2026-05-06 18:10 | 27.25229 | 133.63521 | 36999 ft | 473 kts | 150° |
| 2026-05-06 18:10 | 27.19832 | 133.67765 | 37003 ft | 474 kts | 150° |
| 2026-05-06 18:11 | 27.14431 | 133.72007 | 37001 ft | 474 kts | 150° |
| 2026-05-06 18:11 | 27.09021 | 133.76249 | 37002 ft | 475 kts | 150° |
| 2026-05-06 18:12 | 27.03600 | 133.80495 | 37001 ft | 475 kts | 150° |
| 2026-05-06 18:12 | 26.98170 | 133.84743 | 37004 ft | 476 kts | 150° |
| 2026-05-06 18:13 | 26.92732 | 133.88993 | 37001 ft | 477 kts | 150° |
| 2026-05-06 18:13 | 26.87286 | 133.93244 | 37002 ft | 477 kts | 150° |
| 2026-05-06 18:14 | 26.81836 | 133.97493 | 37002 ft | 477 kts | 150° |
| 2026-05-06 18:14 | 26.76383 | 134.01739 | 36996 ft | 478 kts | 150° |
| 2026-05-06 18:15 | 26.70924 | 134.05984 | 37001 ft | 478 kts | 150° |
| 2026-05-06 18:15 | 26.65495 | 134.10199 | 37003 ft | 478 kts | 150° |
| 2026-05-06 18:16 | 26.60025 | 134.14439 | 37000 ft | 479 kts | 150° |
| 2026-05-06 18:16 | 26.54546 | 134.18683 | 37000 ft | 480 kts | 150° |
| 2026-05-06 18:17 | 26.49056 | 134.22930 | 36997 ft | 480 kts | 150° |
| 2026-05-06 18:17 | 26.43563 | 134.27175 | 37001 ft | 480 kts | 150° |
| 2026-05-06 18:18 | 26.38062 | 134.31421 | 37001 ft | 481 kts | 150° |
| 2026-05-06 18:18 | 26.32558 | 134.35664 | 37005 ft | 481 kts | 150° |
| 2026-05-06 18:19 | 26.27048 | 134.39907 | 37003 ft | 481 kts | 150° |
| 2026-05-06 18:19 | 26.21535 | 134.44146 | 37003 ft | 482 kts | 150° |
| 2026-05-06 18:20 | 26.16020 | 134.48383 | 37000 ft | 482 kts | 150° |
| 2026-05-06 18:20 | 26.10499 | 134.52620 | 37007 ft | 482 kts | 150° |
| 2026-05-06 18:21 | 26.04970 | 134.56857 | 37016 ft | 483 kts | 150° |
| 2026-05-06 18:21 | 25.99437 | 134.61093 | 37015 ft | 483 kts | 150° |
| 2026-05-06 18:22 | 25.93898 | 134.65327 | 37006 ft | 483 kts | 150° |
| 2026-05-06 18:22 | 25.88352 | 134.69563 | 37013 ft | 484 kts | 150° |
| 2026-05-06 18:23 | 25.82803 | 134.73796 | 37011 ft | 484 kts | 151° |
| 2026-05-06 18:23 | 25.77246 | 134.78030 | 37017 ft | 485 kts | 151° |
| 2026-05-06 18:24 | 25.71684 | 134.82263 | 37018 ft | 485 kts | 151° |
| 2026-05-06 18:24 | 25.66111 | 134.86499 | 37020 ft | 486 kts | 151° |
| 2026-05-06 18:25 | 25.60536 | 134.90733 | 37023 ft | 486 kts | 151° |
| 2026-05-06 18:25 | 25.54948 | 134.94970 | 37025 ft | 487 kts | 151° |
| 2026-05-06 18:26 | 25.49342 | 134.99194 | 37027 ft | 487 kts | 152° |
| 2026-05-06 18:26 | 25.43586 | 135.03104 | 37028 ft | 485 kts | 155° |
| 2026-05-06 18:27 | 25.37739 | 135.06854 | 37027 ft | 486 kts | 155° |
| 2026-05-06 18:27 | 25.31932 | 135.10588 | 37026 ft | 487 kts | 155° |
| 2026-05-06 18:28 | 25.26089 | 135.14386 | 37023 ft | 488 kts | 155° |
| 2026-05-06 18:28 | 25.20247 | 135.18199 | 37031 ft | 488 kts | 154° |
| 2026-05-06 18:29 | 25.14395 | 135.22017 | 37026 ft | 489 kts | 155° |
| 2026-05-06 18:29 | 25.08539 | 135.25831 | 37032 ft | 489 kts | 155° |
| 2026-05-06 18:30 | 25.02666 | 135.29651 | 37032 ft | 490 kts | 155° |
| 2026-05-06 18:30 | 24.96792 | 135.33467 | 37032 ft | 490 kts | 155° |
| 2026-05-06 18:31 | 24.90906 | 135.37285 | 37031 ft | 491 kts | 155° |
| 2026-05-06 18:31 | 24.85017 | 135.41103 | 37030 ft | 491 kts | 155° |
| 2026-05-06 18:32 | 24.79121 | 135.44920 | 37028 ft | 492 kts | 155° |
| 2026-05-06 18:32 | 24.73220 | 135.48736 | 37032 ft | 492 kts | 155° |
| 2026-05-06 18:33 | 24.67312 | 135.52553 | 37030 ft | 493 kts | 155° |
| 2026-05-06 18:33 | 24.61393 | 135.56372 | 37034 ft | 493 kts | 154° |
| 2026-05-06 18:34 | 24.55513 | 135.60162 | 37034 ft | 494 kts | 154° |
| 2026-05-06 18:34 | 24.49586 | 135.63978 | 37032 ft | 494 kts | 154° |
| 2026-05-06 18:35 | 24.43654 | 135.67794 | 37032 ft | 494 kts | 154° |
| 2026-05-06 18:35 | 24.37717 | 135.71608 | 37033 ft | 495 kts | 154° |
| 2026-05-06 18:36 | 24.31769 | 135.75425 | 37038 ft | 495 kts | 154° |
| 2026-05-06 18:36 | 24.25828 | 135.79233 | 37036 ft | 496 kts | 154° |
| 2026-05-06 18:37 | 24.20832 | 135.82433 | 37033 ft | 496 kts | 154° |
| 2026-05-06 18:37 | 24.13896 | 135.86869 | 37038 ft | 497 kts | 154° |
| 2026-05-06 18:38 | 24.07925 | 135.90684 | 37039 ft | 497 kts | 154° |
| 2026-05-06 18:38 | 24.01948 | 135.94498 | 37038 ft | 498 kts | 154° |
| 2026-05-06 18:39 | 23.95967 | 135.98312 | 37039 ft | 498 kts | 154° |
| 2026-05-06 18:40 | 23.86985 | 136.04030 | 37042 ft | 498 kts | 154° |
| 2026-05-06 18:40 | 23.80993 | 136.07840 | 37040 ft | 499 kts | 154° |
| 2026-05-06 18:41 | 23.74996 | 136.11648 | 37042 ft | 499 kts | 154° |
| 2026-05-06 18:41 | 23.68989 | 136.15460 | 37041 ft | 499 kts | 154° |
| 2026-05-06 18:42 | 23.62979 | 136.19268 | 37042 ft | 500 kts | 154° |
| 2026-05-06 18:42 | 23.56963 | 136.23077 | 37037 ft | 500 kts | 154° |
| 2026-05-06 18:43 | 23.50978 | 136.26862 | 37038 ft | 501 kts | 154° |
| 2026-05-06 18:43 | 23.44947 | 136.30671 | 37041 ft | 501 kts | 154° |
| 2026-05-06 18:44 | 23.38914 | 136.34479 | 37043 ft | 502 kts | 154° |
| 2026-05-06 18:44 | 23.32872 | 136.38288 | 37039 ft | 502 kts | 154° |
| 2026-05-06 18:45 | 23.26822 | 136.42097 | 37042 ft | 503 kts | 154° |
| 2026-05-06 18:45 | 23.20767 | 136.45907 | 37040 ft | 503 kts | 154° |
| 2026-05-06 18:46 | 23.14705 | 136.49715 | 37039 ft | 504 kts | 154° |
| 2026-05-06 18:46 | 23.08640 | 136.53522 | 37039 ft | 504 kts | 154° |
| 2026-05-06 18:47 | 23.02560 | 136.57335 | 37038 ft | 505 kts | 154° |
| 2026-05-06 18:47 | 22.96477 | 136.61146 | 37038 ft | 505 kts | 154° |
| 2026-05-06 18:48 | 22.90382 | 136.64959 | 37037 ft | 506 kts | 154° |
| 2026-05-06 18:48 | 22.84286 | 136.68770 | 37036 ft | 506 kts | 154° |
| 2026-05-06 18:49 | 22.78185 | 136.72580 | 37034 ft | 506 kts | 154° |
| 2026-05-06 18:49 | 22.72076 | 136.76390 | 37034 ft | 507 kts | 154° |
| 2026-05-06 18:50 | 22.65967 | 136.80196 | 37034 ft | 507 kts | 154° |
| 2026-05-06 18:50 | 22.59852 | 136.84003 | 37032 ft | 507 kts | 154° |
| 2026-05-06 18:51 | 22.53734 | 136.87807 | 37032 ft | 507 kts | 154° |
| 2026-05-06 18:51 | 22.47654 | 136.91584 | 37031 ft | 507 kts | 154° |
| 2026-05-06 18:52 | 22.41527 | 136.95385 | 37028 ft | 508 kts | 154° |
| 2026-05-06 18:52 | 22.35397 | 136.99186 | 37029 ft | 508 kts | 154° |
| 2026-05-06 18:53 | 22.30260 | 137.02367 | 37032 ft | 508 kts | 154° |
| 2026-05-06 18:53 | 22.23130 | 137.06778 | 37032 ft | 509 kts | 154° |
| 2026-05-06 18:54 | 22.17980 | 137.09961 | 37033 ft | 509 kts | 154° |
| 2026-05-06 18:54 | 22.11832 | 137.13757 | 37031 ft | 510 kts | 154° |
| 2026-05-06 18:55 | 22.05674 | 137.17556 | 37044 ft | 510 kts | 154° |
| 2026-05-06 18:55 | 21.99556 | 137.21327 | 37022 ft | 510 kts | 154° |
| 2026-05-06 18:56 | 21.93354 | 137.25145 | 37036 ft | 510 kts | 154° |
| 2026-05-06 18:56 | 21.87223 | 137.28916 | 37034 ft | 511 kts | 154° |
| 2026-05-06 18:57 | 21.81010 | 137.32733 | 37027 ft | 511 kts | 154° |
| 2026-05-06 18:57 | 21.74878 | 137.36497 | 37028 ft | 511 kts | 154° |
| 2026-05-06 18:58 | 21.68698 | 137.40286 | 37029 ft | 512 kts | 154° |
| 2026-05-06 18:58 | 21.62517 | 137.44072 | 37027 ft | 512 kts | 154° |
| 2026-05-06 18:59 | 21.56324 | 137.47862 | 37018 ft | 512 kts | 153° |
| 2026-05-06 18:59 | 21.50135 | 137.51646 | 37029 ft | 512 kts | 153° |
| 2026-05-06 19:00 | 21.43942 | 137.55427 | 37021 ft | 512 kts | 153° |
| 2026-05-06 19:00 | 21.37749 | 137.59206 | 37021 ft | 512 kts | 153° |
| 2026-05-06 19:01 | 21.31553 | 137.62983 | 37019 ft | 512 kts | 153° |
| 2026-05-06 19:01 | 21.25354 | 137.66758 | 37023 ft | 513 kts | 153° |
| 2026-05-06 19:02 | 21.19146 | 137.70534 | 37019 ft | 513 kts | 153° |
| 2026-05-06 19:02 | 21.12942 | 137.74305 | 37022 ft | 513 kts | 153° |
| 2026-05-06 19:03 | 21.06739 | 137.78071 | 37022 ft | 513 kts | 153° |
| 2026-05-06 19:03 | 21.00594 | 137.81969 | 37018 ft | 516 kts | 147° |
| 2026-05-06 19:04 | 20.95049 | 137.86873 | 37016 ft | 518 kts | 141° |
| 2026-05-06 19:04 | 20.89690 | 137.92054 | 37017 ft | 519 kts | 140° |
| 2026-05-06 19:05 | 20.84365 | 137.97275 | 37015 ft | 519 kts | 140° |
| 2026-05-06 19:05 | 20.79037 | 138.02467 | 37013 ft | 519 kts | 140° |
| 2026-05-06 19:06 | 20.73675 | 138.07657 | 37013 ft | 519 kts | 140° |
| 2026-05-06 19:06 | 20.68316 | 138.12831 | 37013 ft | 520 kts | 140° |
| 2026-05-06 19:07 | 20.62948 | 138.18007 | 37008 ft | 520 kts | 140° |
| 2026-05-06 19:07 | 20.57583 | 138.23176 | 37014 ft | 520 kts | 140° |
| 2026-05-06 19:08 | 20.52207 | 138.28352 | 37012 ft | 520 kts | 140° |
| 2026-05-06 19:08 | 20.46871 | 138.33484 | 37012 ft | 520 kts | 140° |
| 2026-05-06 19:09 | 20.41495 | 138.38650 | 37011 ft | 520 kts | 140° |
| 2026-05-06 19:09 | 20.36115 | 138.43815 | 37011 ft | 521 kts | 140° |
| 2026-05-06 19:10 | 20.30731 | 138.48978 | 37014 ft | 520 kts | 140° |
| 2026-05-06 19:10 | 20.25350 | 138.54134 | 37011 ft | 520 kts | 140° |
| 2026-05-06 19:11 | 20.19963 | 138.59290 | 37011 ft | 520 kts | 140° |
| 2026-05-06 19:11 | 20.14577 | 138.64440 | 37015 ft | 521 kts | 140° |
| 2026-05-06 19:12 | 20.09190 | 138.69586 | 37012 ft | 521 kts | 140° |
| 2026-05-06 19:12 | 20.03798 | 138.74732 | 37012 ft | 520 kts | 140° |
| 2026-05-06 19:13 | 19.98407 | 138.79872 | 37013 ft | 521 kts | 140° |
| 2026-05-06 19:13 | 19.93015 | 138.85008 | 37012 ft | 521 kts | 140° |
| 2026-05-06 19:14 | 19.87614 | 138.90148 | 37012 ft | 521 kts | 140° |
| 2026-05-06 19:14 | 19.82215 | 138.95281 | 37013 ft | 521 kts | 140° |
| 2026-05-06 19:15 | 19.76816 | 139.00409 | 37008 ft | 521 kts | 140° |
| 2026-05-06 19:15 | 19.71414 | 139.05535 | 37008 ft | 521 kts | 140° |
| 2026-05-06 19:16 | 19.66007 | 139.10661 | 37010 ft | 521 kts | 140° |
| 2026-05-06 19:16 | 19.60599 | 139.15783 | 37009 ft | 521 kts | 140° |
| 2026-05-06 19:17 | 19.55227 | 139.20866 | 37009 ft | 521 kts | 140° |
| 2026-05-06 19:17 | 19.49812 | 139.25985 | 37009 ft | 522 kts | 140° |
| 2026-05-06 19:18 | 19.44391 | 139.31105 | 37005 ft | 522 kts | 140° |
| 2026-05-06 19:18 | 19.38971 | 139.36219 | 37005 ft | 522 kts | 140° |
| 2026-05-06 19:19 | 19.33547 | 139.41334 | 37004 ft | 522 kts | 140° |
| 2026-05-06 19:19 | 19.28122 | 139.46443 | 37001 ft | 522 kts | 140° |
| 2026-05-06 19:20 | 19.22694 | 139.51550 | 37002 ft | 522 kts | 140° |
| 2026-05-06 19:20 | 19.17259 | 139.56660 | 37000 ft | 522 kts | 140° |
| 2026-05-06 19:21 | 19.11831 | 139.61759 | 37002 ft | 522 kts | 140° |
| 2026-05-06 19:21 | 19.06396 | 139.66858 | 37003 ft | 522 kts | 140° |
| 2026-05-06 19:22 | 19.00959 | 139.71956 | 36997 ft | 522 kts | 140° |
| 2026-05-06 19:22 | 18.95522 | 139.77048 | 36997 ft | 522 kts | 140° |
| 2026-05-06 19:23 | 18.90088 | 139.82134 | 36997 ft | 522 kts | 140° |
| 2026-05-06 19:23 | 18.84683 | 139.87188 | 36994 ft | 522 kts | 140° |
| 2026-05-06 19:24 | 18.79247 | 139.92265 | 36996 ft | 522 kts | 140° |
| 2026-05-06 19:24 | 18.73811 | 139.97340 | 37007 ft | 522 kts | 140° |
| 2026-05-06 19:25 | 18.68375 | 140.02409 | 36987 ft | 522 kts | 140° |
| 2026-05-06 19:25 | 18.62941 | 140.07471 | 36989 ft | 521 kts | 140° |
| 2026-05-06 19:26 | 18.57500 | 140.12536 | 36984 ft | 522 kts | 140° |
| 2026-05-06 19:26 | 18.52061 | 140.17594 | 36998 ft | 521 kts | 140° |
| 2026-05-06 19:27 | 18.46620 | 140.22649 | 36981 ft | 521 kts | 140° |
| 2026-05-06 19:27 | 18.41183 | 140.27697 | 36993 ft | 521 kts | 140° |
| 2026-05-06 19:28 | 18.35740 | 140.32745 | 36988 ft | 521 kts | 140° |
| 2026-05-06 19:28 | 18.30300 | 140.37787 | 36976 ft | 521 kts | 140° |
| 2026-05-06 19:29 | 18.24857 | 140.42827 | 36984 ft | 521 kts | 140° |
| 2026-05-06 19:29 | 18.19418 | 140.47859 | 36985 ft | 521 kts | 140° |
| 2026-05-06 19:30 | 18.13974 | 140.52891 | 36984 ft | 521 kts | 140° |
| 2026-05-06 19:30 | 18.08530 | 140.57918 | 36982 ft | 521 kts | 140° |
| 2026-05-06 19:31 | 18.03085 | 140.62942 | 36983 ft | 521 kts | 139° |
| 2026-05-06 19:31 | 17.94956 | 140.70435 | 36978 ft | 521 kts | 139° |
| 2026-05-06 19:32 | 17.89512 | 140.75448 | 36983 ft | 521 kts | 139° |
| 2026-05-06 19:32 | 17.84063 | 140.80461 | 36981 ft | 521 kts | 139° |
| 2026-05-06 19:33 | 17.78619 | 140.85465 | 36983 ft | 521 kts | 139° |
| 2026-05-06 19:33 | 17.73167 | 140.90472 | 36981 ft | 521 kts | 139° |
| 2026-05-06 19:34 | 17.67714 | 140.95476 | 36976 ft | 521 kts | 140° |
| 2026-05-06 19:34 | 17.62267 | 141.00471 | 36978 ft | 521 kts | 140° |
| 2026-05-06 19:35 | 17.56811 | 141.05469 | 36975 ft | 521 kts | 140° |
| 2026-05-06 19:35 | 17.51357 | 141.10462 | 36978 ft | 521 kts | 140° |
| 2026-05-06 19:36 | 17.45901 | 141.15452 | 36980 ft | 521 kts | 140° |
| 2026-05-06 19:36 | 17.40448 | 141.20435 | 36977 ft | 520 kts | 140° |
| 2026-05-06 19:37 | 17.34987 | 141.25421 | 36971 ft | 521 kts | 140° |
| 2026-05-06 19:37 | 17.30415 | 141.29592 | 36973 ft | 521 kts | 140° |
| 2026-05-06 19:38 | 17.24068 | 141.35379 | 36970 ft | 521 kts | 140° |
| 2026-05-06 19:38 | 17.18605 | 141.40355 | 36968 ft | 521 kts | 140° |
| 2026-05-06 19:39 | 17.13137 | 141.45331 | 36971 ft | 521 kts | 140° |
| 2026-05-06 19:39 | 17.07662 | 141.50311 | 36972 ft | 521 kts | 140° |
| 2026-05-06 19:40 | 17.03116 | 141.54441 | 36974 ft | 521 kts | 140° |
| 2026-05-06 19:40 | 16.97638 | 141.59416 | 36969 ft | 521 kts | 140° |
| 2026-05-06 19:41 | 16.92161 | 141.64385 | 36973 ft | 522 kts | 140° |
| 2026-05-06 19:41 | 16.86684 | 141.69350 | 36970 ft | 522 kts | 140° |
| 2026-05-06 19:42 | 16.81198 | 141.74319 | 36969 ft | 522 kts | 140° |
| 2026-05-06 19:42 | 16.75714 | 141.79284 | 36971 ft | 522 kts | 140° |
| 2026-05-06 19:43 | 16.70230 | 141.84244 | 36972 ft | 522 kts | 140° |
| 2026-05-06 19:43 | 16.64742 | 141.89203 | 36972 ft | 522 kts | 140° |
| 2026-05-06 19:44 | 16.54124 | 141.98807 | 36970 ft | 522 kts | 140° |
| 2026-05-06 19:45 | 16.48641 | 142.03792 | 36962 ft | 522 kts | 139° |
| 2026-05-06 19:45 | 16.43169 | 142.08764 | 36965 ft | 522 kts | 140° |
| 2026-05-06 19:46 | 16.37692 | 142.13735 | 36965 ft | 522 kts | 140° |
| 2026-05-06 19:46 | 16.32207 | 142.18707 | 36965 ft | 523 kts | 140° |
| 2026-05-06 19:47 | 16.26725 | 142.23672 | 36965 ft | 523 kts | 140° |
| 2026-05-06 19:47 | 16.21236 | 142.28640 | 36964 ft | 523 kts | 140° |
| 2026-05-06 19:48 | 16.15751 | 142.33601 | 36960 ft | 523 kts | 140° |
| 2026-05-06 19:48 | 16.10258 | 142.38565 | 36953 ft | 523 kts | 140° |
| 2026-05-06 19:49 | 16.04768 | 142.43523 | 36956 ft | 523 kts | 140° |
| 2026-05-06 19:49 | 15.99270 | 142.48483 | 36953 ft | 523 kts | 140° |
| 2026-05-06 19:50 | 15.93809 | 142.53404 | 36949 ft | 523 kts | 140° |
| 2026-05-06 19:50 | 15.88306 | 142.58361 | 36949 ft | 523 kts | 140° |
| 2026-05-06 19:51 | 15.82803 | 142.63315 | 36947 ft | 524 kts | 140° |
| 2026-05-06 19:51 | 15.77295 | 142.68269 | 36948 ft | 524 kts | 140° |
| 2026-05-06 19:52 | 15.71782 | 142.73224 | 36946 ft | 524 kts | 140° |
| 2026-05-06 19:52 | 15.66271 | 142.78174 | 36946 ft | 524 kts | 140° |
| 2026-05-06 19:53 | 15.60757 | 142.83123 | 36940 ft | 524 kts | 140° |
| 2026-05-06 19:53 | 15.55244 | 142.88066 | 36942 ft | 524 kts | 140° |
| 2026-05-06 19:54 | 15.49728 | 142.93009 | 36944 ft | 524 kts | 140° |
| 2026-05-06 19:54 | 15.44213 | 142.97948 | 36943 ft | 524 kts | 140° |
| 2026-05-06 19:55 | 15.38696 | 143.02885 | 36946 ft | 524 kts | 140° |
| 2026-05-06 19:55 | 15.33216 | 143.07784 | 36938 ft | 524 kts | 140° |
| 2026-05-06 19:56 | 15.27701 | 143.12712 | 36936 ft | 524 kts | 140° |
| 2026-05-06 19:56 | 15.22180 | 143.17642 | 36935 ft | 524 kts | 140° |
| 2026-05-06 19:57 | 15.16656 | 143.22571 | 36941 ft | 524 kts | 140° |
| 2026-05-06 19:57 | 15.11135 | 143.27493 | 36938 ft | 524 kts | 140° |
| 2026-05-06 19:58 | 15.05614 | 143.32413 | 36929 ft | 524 kts | 140° |
| 2026-05-06 19:58 | 15.00089 | 143.37331 | 36931 ft | 524 kts | 140° |
| 2026-05-06 19:59 | 14.94566 | 143.42246 | 36935 ft | 524 kts | 140° |
| 2026-05-06 19:59 | 14.89040 | 143.47159 | 36933 ft | 524 kts | 140° |
| 2026-05-06 20:00 | 14.83513 | 143.52069 | 36929 ft | 524 kts | 140° |
| 2026-05-06 20:00 | 14.77985 | 143.56977 | 36932 ft | 524 kts | 140° |
| 2026-05-06 20:01 | 14.72457 | 143.61881 | 36933 ft | 524 kts | 140° |
| 2026-05-06 20:01 | 14.66925 | 143.66776 | 36930 ft | 524 kts | 140° |
| 2026-05-06 20:02 | 14.61390 | 143.71663 | 36928 ft | 523 kts | 140° |
| 2026-05-06 20:02 | 14.55854 | 143.76548 | 36931 ft | 523 kts | 140° |
| 2026-05-06 20:03 | 14.50322 | 143.81427 | 36924 ft | 523 kts | 140° |
| 2026-05-06 20:03 | 14.44830 | 143.86268 | 36923 ft | 523 kts | 141° |
| 2026-05-06 20:04 | 14.39303 | 143.91137 | 36925 ft | 522 kts | 141° |
| 2026-05-06 20:04 | 14.33776 | 143.96003 | 36921 ft | 522 kts | 141° |
| 2026-05-06 20:05 | 14.28262 | 144.00853 | 36922 ft | 521 kts | 141° |
| 2026-05-06 20:05 | 14.22757 | 144.05694 | 36921 ft | 520 kts | 141° |
| 2026-05-06 20:06 | 14.17253 | 144.10529 | 36919 ft | 519 kts | 141° |
| 2026-05-06 20:06 | 14.11756 | 144.15356 | 36917 ft | 519 kts | 141° |
| 2026-05-06 20:07 | 14.06266 | 144.20173 | 36919 ft | 518 kts | 141° |
| 2026-05-06 20:07 | 14.00782 | 144.24981 | 36916 ft | 517 kts | 141° |
| 2026-05-06 20:08 | 13.95339 | 144.29751 | 36915 ft | 517 kts | 141° |
| 2026-05-06 20:08 | 13.89830 | 144.34575 | 36916 ft | 516 kts | 141° |
| 2026-05-06 20:09 | 13.84363 | 144.39359 | 36908 ft | 515 kts | 142° |
| 2026-05-06 20:09 | 13.78906 | 144.44132 | 36910 ft | 514 kts | 142° |
| 2026-05-06 20:10 | 13.73461 | 144.48892 | 36909 ft | 513 kts | 142° |
| 2026-05-06 20:10 | 13.68062 | 144.53607 | 36907 ft | 512 kts | 142° |
| 2026-05-06 20:11 | 13.62634 | 144.58345 | 36910 ft | 511 kts | 142° |
| 2026-05-06 20:11 | 13.57224 | 144.63065 | 36918 ft | 510 kts | 142° |
| 2026-05-06 20:12 | 13.51822 | 144.67775 | 36920 ft | 509 kts | 142° |
| 2026-05-06 20:12 | 13.46462 | 144.72519 | 36920 ft | 509 kts | 138° |
| 2026-05-06 20:13 | 13.41733 | 144.77947 | 36926 ft | 510 kts | 132° |
| 2026-05-06 20:13 | 13.37234 | 144.83589 | 36922 ft | 510 kts | 131° |
| 2026-05-06 20:14 | 13.32784 | 144.89256 | 36918 ft | 510 kts | 131° |
| 2026-05-06 20:14 | 13.28324 | 144.94905 | 36911 ft | 509 kts | 131° |
| 2026-05-06 20:15 | 13.23848 | 145.00545 | 36904 ft | 509 kts | 131° |
| 2026-05-06 20:15 | 13.19367 | 145.06177 | 36896 ft | 509 kts | 131° |
| 2026-05-06 20:16 | 13.14882 | 145.11811 | 36897 ft | 509 kts | 131° |
| 2026-05-06 20:16 | 13.10402 | 145.17437 | 36900 ft | 509 kts | 131° |
| 2026-05-06 20:17 | 13.05922 | 145.23062 | 36897 ft | 509 kts | 131° |
| 2026-05-06 20:17 | 13.01446 | 145.28674 | 36897 ft | 508 kts | 131° |
| 2026-05-06 20:18 | 12.96978 | 145.34271 | 36894 ft | 506 kts | 131° |
| 2026-05-06 20:18 | 12.92524 | 145.39852 | 36896 ft | 505 kts | 131° |
| 2026-05-06 20:19 | 12.88077 | 145.45422 | 36896 ft | 504 kts | 131° |
| 2026-05-06 20:19 | 12.83633 | 145.50967 | 36891 ft | 503 kts | 132° |
| 2026-05-06 20:20 | 12.79199 | 145.56509 | 36892 ft | 503 kts | 131° |
| 2026-05-06 20:20 | 12.74798 | 145.62020 | 36888 ft | 503 kts | 131° |
| 2026-05-06 20:21 | 12.70364 | 145.67555 | 36889 ft | 502 kts | 132° |
| 2026-05-06 20:21 | 12.65926 | 145.73079 | 36887 ft | 503 kts | 131° |
| 2026-05-06 20:22 | 12.61494 | 145.78619 | 36885 ft | 503 kts | 131° |
| 2026-05-06 20:22 | 12.57056 | 145.84154 | 36887 ft | 503 kts | 131° |
| 2026-05-06 20:23 | 12.52612 | 145.89681 | 36886 ft | 503 kts | 131° |
| 2026-05-06 20:23 | 12.48169 | 145.95209 | 36884 ft | 503 kts | 131° |
| 2026-05-06 20:24 | 12.43718 | 146.00739 | 36882 ft | 503 kts | 131° |
| 2026-05-06 20:24 | 12.39277 | 146.06271 | 36883 ft | 503 kts | 132° |
| 2026-05-06 20:25 | 12.34820 | 146.11796 | 36880 ft | 504 kts | 131° |
| 2026-05-06 20:25 | 12.30377 | 146.17328 | 36880 ft | 504 kts | 131° |
| 2026-05-06 20:26 | 12.25919 | 146.22869 | 36879 ft | 504 kts | 131° |
| 2026-05-06 20:26 | 12.21457 | 146.28404 | 36885 ft | 504 kts | 131° |
| 2026-05-06 20:27 | 12.16992 | 146.33934 | 36885 ft | 505 kts | 131° |
| 2026-05-06 20:27 | 12.12520 | 146.39473 | 36881 ft | 505 kts | 131° |
| 2026-05-06 20:28 | 12.08054 | 146.45001 | 36879 ft | 504 kts | 131° |
| 2026-05-06 20:28 | 12.03599 | 146.50519 | 36880 ft | 503 kts | 131° |
| 2026-05-06 20:29 | 11.99142 | 146.56032 | 36879 ft | 502 kts | 131° |
| 2026-05-06 20:29 | 11.94698 | 146.61535 | 36875 ft | 502 kts | 131° |
| 2026-05-06 20:30 | 11.88045 | 146.69773 | 36874 ft | 501 kts | 132° |
| 2026-05-06 20:31 | 11.84351 | 146.74321 | 36877 ft | 500 kts | 132° |
| 2026-05-06 20:31 | 11.79910 | 146.79786 | 36876 ft | 500 kts | 132° |
| 2026-05-06 20:32 | 11.74724 | 146.86175 | 36873 ft | 500 kts | 132° |
| 2026-05-06 20:32 | 11.71039 | 146.90719 | 36874 ft | 500 kts | 132° |
| 2026-05-06 20:33 | 11.66609 | 146.96178 | 36874 ft | 499 kts | 132° |
| 2026-05-06 20:33 | 11.62183 | 147.01630 | 36871 ft | 499 kts | 132° |
| 2026-05-06 20:34 | 11.57750 | 147.07082 | 36872 ft | 499 kts | 132° |
| 2026-05-06 20:34 | 11.52766 | 147.11908 | 36872 ft | 493 kts | 147° |
| 2026-05-06 20:35 | 11.47065 | 147.15762 | 36868 ft | 491 kts | 150° |
| 2026-05-06 20:35 | 11.41251 | 147.19402 | 36868 ft | 490 kts | 151° |
| 2026-05-06 20:36 | 11.35438 | 147.23014 | 36871 ft | 489 kts | 151° |
| 2026-05-06 20:36 | 11.29643 | 147.26645 | 36871 ft | 488 kts | 150° |
| 2026-05-06 20:37 | 11.23873 | 147.30281 | 36871 ft | 487 kts | 150° |
| 2026-05-06 20:37 | 11.18115 | 147.33916 | 36871 ft | 487 kts | 150° |
| 2026-05-06 20:38 | 11.12361 | 147.37545 | 36871 ft | 486 kts | 150° |
| 2026-05-06 20:38 | 11.06621 | 147.41163 | 36870 ft | 485 kts | 150° |
| 2026-05-06 20:39 | 11.00885 | 147.44776 | 36867 ft | 484 kts | 150° |
| 2026-05-06 20:39 | 10.95192 | 147.48361 | 36866 ft | 484 kts | 150° |
| 2026-05-06 20:40 | 10.89471 | 147.51961 | 36869 ft | 483 kts | 150° |
| 2026-05-06 20:40 | 10.83749 | 147.55561 | 36869 ft | 483 kts | 150° |
| 2026-05-06 20:41 | 10.78029 | 147.59157 | 36868 ft | 483 kts | 150° |
| 2026-05-06 20:41 | 10.72313 | 147.62750 | 36867 ft | 483 kts | 150° |
| 2026-05-06 20:42 | 10.66597 | 147.66340 | 36867 ft | 483 kts | 150° |
| 2026-05-06 20:42 | 10.60875 | 147.69932 | 36869 ft | 483 kts | 150° |
| 2026-05-06 20:43 | 10.55161 | 147.73519 | 36870 ft | 483 kts | 150° |
| 2026-05-06 20:43 | 10.49443 | 147.77106 | 36868 ft | 483 kts | 150° |
| 2026-05-06 20:44 | 10.43734 | 147.80689 | 36867 ft | 482 kts | 150° |
| 2026-05-06 20:44 | 10.38030 | 147.84275 | 36868 ft | 482 kts | 150° |
| 2026-05-06 20:45 | 10.32330 | 147.87858 | 36867 ft | 481 kts | 150° |
| 2026-05-06 20:45 | 10.26640 | 147.91433 | 36866 ft | 481 kts | 150° |
| 2026-05-06 20:46 | 10.20943 | 147.95011 | 36868 ft | 482 kts | 150° |
| 2026-05-06 20:46 | 10.15236 | 147.98593 | 36868 ft | 483 kts | 150° |
| 2026-05-06 20:47 | 10.09524 | 148.02177 | 36868 ft | 483 kts | 150° |
| 2026-05-06 20:47 | 10.03834 | 148.05746 | 36866 ft | 484 kts | 150° |
| 2026-05-06 20:48 | 9.98098 | 148.09342 | 36866 ft | 485 kts | 150° |
| 2026-05-06 20:48 | 9.92353 | 148.12942 | 36864 ft | 486 kts | 150° |
| 2026-05-06 20:49 | 9.86599 | 148.16545 | 36864 ft | 487 kts | 150° |
| 2026-05-06 20:49 | 9.80830 | 148.20157 | 36863 ft | 488 kts | 150° |
| 2026-05-06 20:50 | 9.75053 | 148.23773 | 36861 ft | 489 kts | 150° |
| 2026-05-06 20:50 | 9.69265 | 148.27395 | 36861 ft | 489 kts | 150° |
| 2026-05-06 20:51 | 9.63463 | 148.31023 | 36864 ft | 490 kts | 150° |
| 2026-05-06 20:51 | 9.57655 | 148.34651 | 36861 ft | 491 kts | 150° |
| 2026-05-06 20:52 | 9.51844 | 148.38282 | 36862 ft | 491 kts | 150° |
| 2026-05-06 20:52 | 9.46032 | 148.41912 | 36863 ft | 491 kts | 150° |
| 2026-05-06 20:53 | 9.40214 | 148.45544 | 36863 ft | 491 kts | 150° |
| 2026-05-06 20:53 | 9.34400 | 148.49175 | 36858 ft | 491 kts | 150° |
| 2026-05-06 20:54 | 9.28585 | 148.52805 | 36860 ft | 491 kts | 150° |
| 2026-05-06 20:54 | 9.22764 | 148.56434 | 36858 ft | 491 kts | 150° |
| 2026-05-06 20:55 | 9.16945 | 148.60058 | 36861 ft | 491 kts | 150° |
| 2026-05-06 20:55 | 9.11123 | 148.63680 | 36859 ft | 491 kts | 150° |
| 2026-05-06 20:56 | 9.05308 | 148.67304 | 36857 ft | 491 kts | 150° |
| 2026-05-06 20:56 | 8.99533 | 148.70903 | 36856 ft | 491 kts | 150° |
| 2026-05-06 20:57 | 8.93716 | 148.74525 | 36856 ft | 491 kts | 150° |
| 2026-05-06 20:57 | 8.87890 | 148.78159 | 36854 ft | 492 kts | 150° |
| 2026-05-06 20:58 | 8.82054 | 148.81784 | 36852 ft | 493 kts | 150° |
| 2026-05-06 20:58 | 8.76203 | 148.85419 | 36853 ft | 494 kts | 150° |
| 2026-05-06 20:59 | 8.70340 | 148.89058 | 36854 ft | 495 kts | 150° |
| 2026-05-06 20:59 | 8.64475 | 148.92711 | 36853 ft | 495 kts | 150° |
| 2026-05-06 21:00 | 8.58601 | 148.96350 | 36852 ft | 496 kts | 150° |
| 2026-05-06 21:00 | 8.52719 | 148.99995 | 36854 ft | 496 kts | 150° |
| 2026-05-06 21:01 | 8.46832 | 149.03650 | 36852 ft | 497 kts | 150° |
| 2026-05-06 21:01 | 8.40944 | 149.07310 | 36853 ft | 497 kts | 150° |
| 2026-05-06 21:02 | 8.35049 | 149.10955 | 36856 ft | 497 kts | 150° |
| 2026-05-06 21:02 | 8.29151 | 149.14619 | 36853 ft | 498 kts | 150° |
| 2026-05-06 21:03 | 8.23246 | 149.18284 | 36855 ft | 499 kts | 150° |
| 2026-05-06 21:03 | 8.17329 | 149.21953 | 36853 ft | 500 kts | 150° |
| 2026-05-06 21:04 | 8.11395 | 149.25624 | 36855 ft | 500 kts | 150° |
| 2026-05-06 21:04 | 8.05453 | 149.29294 | 36863 ft | 501 kts | 150° |
| 2026-05-06 21:05 | 7.99546 | 149.32950 | 36859 ft | 501 kts | 150° |
| 2026-05-06 21:05 | 7.93600 | 149.36629 | 36857 ft | 502 kts | 150° |
| 2026-05-06 21:06 | 7.87644 | 149.40301 | 36857 ft | 502 kts | 150° |
| 2026-05-06 21:06 | 7.81696 | 149.43978 | 36854 ft | 502 kts | 150° |
| 2026-05-06 21:07 | 7.75741 | 149.47666 | 36856 ft | 502 kts | 150° |
| 2026-05-06 21:07 | 7.69790 | 149.51342 | 36856 ft | 502 kts | 150° |
| 2026-05-06 21:08 | 7.63837 | 149.55018 | 36858 ft | 502 kts | 150° |
| 2026-05-06 21:08 | 7.57883 | 149.58693 | 36856 ft | 502 kts | 150° |
| 2026-05-06 21:09 | 7.51932 | 149.62362 | 36856 ft | 502 kts | 150° |
| 2026-05-06 21:09 | 7.45979 | 149.66033 | 36857 ft | 502 kts | 149° |
| 2026-05-06 21:10 | 7.40020 | 149.69709 | 36855 ft | 502 kts | 149° |
| 2026-05-06 21:10 | 7.34058 | 149.73386 | 36858 ft | 503 kts | 149° |
| 2026-05-06 21:11 | 7.28092 | 149.77065 | 36856 ft | 503 kts | 149° |
| 2026-05-06 21:11 | 7.22125 | 149.80741 | 36859 ft | 503 kts | 149° |
| 2026-05-06 21:12 | 7.16162 | 149.84413 | 36860 ft | 502 kts | 149° |
| 2026-05-06 21:12 | 7.10239 | 149.88059 | 36859 ft | 502 kts | 149° |
| 2026-05-06 21:13 | 7.04243 | 149.91749 | 36863 ft | 502 kts | 149° |
| 2026-05-06 21:13 | 6.98327 | 149.95390 | 36862 ft | 502 kts | 149° |
| 2026-05-06 21:14 | 6.92367 | 149.99057 | 36864 ft | 502 kts | 149° |
| 2026-05-06 21:14 | 6.86408 | 150.02721 | 36862 ft | 502 kts | 149° |
| 2026-05-06 21:15 | 6.80452 | 150.06383 | 36861 ft | 501 kts | 149° |
| 2026-05-06 21:15 | 6.74502 | 150.10040 | 36862 ft | 501 kts | 149° |
| 2026-05-06 21:16 | 6.68554 | 150.13695 | 36862 ft | 501 kts | 149° |
| 2026-05-06 21:16 | 6.62607 | 150.17347 | 36861 ft | 501 kts | 148° |
| 2026-05-06 21:17 | 6.56659 | 150.21000 | 36862 ft | 501 kts | 148° |
| 2026-05-06 21:17 | 6.50707 | 150.24654 | 36864 ft | 501 kts | 148° |
| 2026-05-06 21:18 | 6.44765 | 150.28301 | 36866 ft | 501 kts | 148° |
| 2026-05-06 21:18 | 6.38811 | 150.31954 | 36864 ft | 501 kts | 148° |
| 2026-05-06 21:19 | 6.32861 | 150.35603 | 36865 ft | 501 kts | 148° |
| 2026-05-06 21:19 | 6.27915 | 150.38637 | 36864 ft | 501 kts | 148° |
| 2026-05-06 21:20 | 6.21962 | 150.42286 | 36864 ft | 501 kts | 148° |
| 2026-05-06 21:20 | 6.16015 | 150.45931 | 36865 ft | 501 kts | 148° |
| 2026-05-06 21:21 | 6.10061 | 150.49581 | 36865 ft | 501 kts | 148° |
| 2026-05-06 21:21 | 6.04114 | 150.53230 | 36866 ft | 501 kts | 148° |
| 2026-05-06 21:22 | 5.98172 | 150.56895 | 36863 ft | 501 kts | 147° |
| 2026-05-06 21:22 | 5.92232 | 150.60564 | 36863 ft | 501 kts | 147° |
| 2026-05-06 21:23 | 5.86287 | 150.64234 | 36861 ft | 501 kts | 147° |
| 2026-05-06 21:23 | 5.80343 | 150.67900 | 36860 ft | 502 kts | 148° |
| 2026-05-06 21:24 | 5.74390 | 150.71568 | 36862 ft | 502 kts | 148° |
| 2026-05-06 21:24 | 5.68474 | 150.75214 | 36867 ft | 502 kts | 148° |
| 2026-05-06 21:25 | 5.62479 | 150.78909 | 36863 ft | 503 kts | 148° |
| 2026-05-06 21:25 | 5.56556 | 150.82557 | 36864 ft | 503 kts | 148° |
| 2026-05-06 21:26 | 5.50592 | 150.86230 | 36870 ft | 503 kts | 148° |
| 2026-05-06 21:26 | 5.44626 | 150.89904 | 36864 ft | 503 kts | 148° |
| 2026-05-06 21:27 | 5.38655 | 150.93580 | 36863 ft | 503 kts | 148° |
| 2026-05-06 21:27 | 5.32685 | 150.97254 | 36868 ft | 504 kts | 148° |
| 2026-05-06 21:28 | 5.26709 | 151.00931 | 36863 ft | 504 kts | 147° |
| 2026-05-06 21:28 | 5.20734 | 151.04607 | 36862 ft | 504 kts | 147° |
| 2026-05-06 21:29 | 5.14766 | 151.08278 | 36864 ft | 503 kts | 147° |
| 2026-05-06 21:29 | 5.08794 | 151.11950 | 36864 ft | 503 kts | 147° |
| 2026-05-06 21:30 | 5.02831 | 151.15616 | 36862 ft | 503 kts | 147° |
| 2026-05-06 21:30 | 4.96866 | 151.19282 | 36861 ft | 503 kts | 147° |
| 2026-05-06 21:31 | 4.90905 | 151.22945 | 36866 ft | 502 kts | 147° |
| 2026-05-06 21:31 | 4.84946 | 151.26606 | 36866 ft | 502 kts | 147° |
| 2026-05-06 21:32 | 4.78990 | 151.30265 | 36868 ft | 502 kts | 147° |
| 2026-05-06 21:32 | 4.70066 | 151.35745 | 36862 ft | 501 kts | 147° |
| 2026-05-06 21:33 | 4.64125 | 151.39392 | 36857 ft | 500 kts | 147° |
| 2026-05-06 21:33 | 4.58189 | 151.43036 | 36861 ft | 500 kts | 147° |
| 2026-05-06 21:34 | 4.52302 | 151.46648 | 36865 ft | 499 kts | 147° |
| 2026-05-06 21:34 | 4.46380 | 151.50282 | 36863 ft | 499 kts | 147° |
| 2026-05-06 21:35 | 4.40465 | 151.53910 | 36866 ft | 498 kts | 147° |
| 2026-05-06 21:35 | 4.34557 | 151.57535 | 36862 ft | 498 kts | 147° |
| 2026-05-06 21:36 | 4.28651 | 151.61156 | 36864 ft | 498 kts | 147° |
| 2026-05-06 21:36 | 4.22743 | 151.64778 | 36867 ft | 498 kts | 147° |
| 2026-05-06 21:37 | 4.16832 | 151.68402 | 36862 ft | 498 kts | 148° |
| 2026-05-06 21:37 | 4.10923 | 151.72023 | 36864 ft | 498 kts | 148° |
| 2026-05-06 21:38 | 4.05006 | 151.75649 | 36862 ft | 499 kts | 148° |
| 2026-05-06 21:38 | 3.99087 | 151.79276 | 36858 ft | 499 kts | 148° |
| 2026-05-06 21:39 | 3.93162 | 151.82905 | 36862 ft | 499 kts | 148° |
| 2026-05-06 21:39 | 3.87240 | 151.86532 | 36865 ft | 499 kts | 148° |
| 2026-05-06 21:40 | 3.81310 | 151.90163 | 36861 ft | 500 kts | 148° |
| 2026-05-06 21:40 | 3.75377 | 151.93796 | 36862 ft | 500 kts | 148° |
| 2026-05-06 21:41 | 3.69440 | 151.97430 | 36866 ft | 500 kts | 148° |
| 2026-05-06 21:41 | 3.63500 | 152.01066 | 36861 ft | 500 kts | 148° |
| 2026-05-06 21:42 | 3.57567 | 152.04696 | 36861 ft | 500 kts | 148° |
| 2026-05-06 21:42 | 3.51641 | 152.08322 | 36862 ft | 499 kts | 148° |
| 2026-05-06 21:43 | 3.45720 | 152.11944 | 36859 ft | 499 kts | 148° |
| 2026-05-06 21:43 | 3.39803 | 152.15564 | 36860 ft | 498 kts | 148° |
| 2026-05-06 21:44 | 3.33888 | 152.19182 | 36861 ft | 498 kts | 148° |
| 2026-05-06 21:44 | 3.27979 | 152.22795 | 36863 ft | 497 kts | 148° |
| 2026-05-06 21:45 | 3.22118 | 152.26379 | 36865 ft | 497 kts | 148° |
| 2026-05-06 21:45 | 3.16218 | 152.29986 | 36865 ft | 497 kts | 148° |
| 2026-05-06 21:46 | 3.10327 | 152.33587 | 36864 ft | 496 kts | 147° |
| 2026-05-06 21:46 | 3.04432 | 152.37190 | 36864 ft | 496 kts | 147° |
| 2026-05-06 21:47 | 2.98545 | 152.40787 | 36864 ft | 496 kts | 147° |
| 2026-05-06 21:47 | 2.92658 | 152.44385 | 36861 ft | 496 kts | 147° |
| 2026-05-06 21:48 | 2.86773 | 152.47980 | 36863 ft | 496 kts | 147° |
| 2026-05-06 21:48 | 2.80888 | 152.51575 | 36864 ft | 496 kts | 147° |
| 2026-05-06 21:49 | 2.75002 | 152.55171 | 36864 ft | 496 kts | 147° |
| 2026-05-06 21:49 | 2.69116 | 152.58765 | 36861 ft | 496 kts | 147° |
| 2026-05-06 21:50 | 2.63230 | 152.62360 | 36866 ft | 496 kts | 147° |
| 2026-05-06 21:50 | 2.57341 | 152.65956 | 36863 ft | 496 kts | 147° |
| 2026-05-06 21:51 | 2.51452 | 152.69551 | 36867 ft | 496 kts | 147° |
| 2026-05-06 21:51 | 2.45563 | 152.73146 | 36861 ft | 496 kts | 147° |
| 2026-05-06 21:52 | 2.39711 | 152.76718 | 36866 ft | 496 kts | 147° |
| 2026-05-06 21:52 | 2.33822 | 152.80313 | 36863 ft | 496 kts | 147° |
| 2026-05-06 21:53 | 2.27931 | 152.83908 | 36864 ft | 496 kts | 147° |
| 2026-05-06 21:53 | 2.22039 | 152.87503 | 36864 ft | 496 kts | 147° |
| 2026-05-06 21:54 | 2.16151 | 152.91096 | 36864 ft | 496 kts | 147° |
| 2026-05-06 21:54 | 2.10260 | 152.94690 | 36867 ft | 496 kts | 147° |
| 2026-05-06 21:55 | 2.04370 | 152.98283 | 36869 ft | 496 kts | 147° |
| 2026-05-06 21:55 | 1.98487 | 153.01871 | 36864 ft | 496 kts | 147° |
| 2026-05-06 21:56 | 1.92602 | 153.05461 | 36864 ft | 495 kts | 147° |
| 2026-05-06 21:56 | 1.86720 | 153.09048 | 36867 ft | 495 kts | 147° |
| 2026-05-06 21:57 | 1.80844 | 153.12632 | 36867 ft | 495 kts | 147° |
| 2026-05-06 21:57 | 1.74969 | 153.16214 | 36867 ft | 495 kts | 147° |
| 2026-05-06 21:58 | 1.69097 | 153.19794 | 36867 ft | 494 kts | 147° |
| 2026-05-06 21:58 | 1.63265 | 153.23350 | 36869 ft | 494 kts | 147° |
| 2026-05-06 21:59 | 1.57399 | 153.26926 | 36866 ft | 494 kts | 147° |
| 2026-05-06 21:59 | 1.51536 | 153.30501 | 36866 ft | 494 kts | 147° |
| 2026-05-06 22:00 | 1.45677 | 153.34072 | 36868 ft | 493 kts | 147° |
| 2026-05-06 22:00 | 1.39817 | 153.37644 | 36867 ft | 494 kts | 147° |
| 2026-05-06 22:01 | 1.33950 | 153.41220 | 36868 ft | 494 kts | 147° |
| 2026-05-06 22:01 | 1.28087 | 153.44793 | 36865 ft | 494 kts | 147° |
| 2026-05-06 22:02 | 1.22224 | 153.48367 | 36867 ft | 494 kts | 147° |
| 2026-05-06 22:02 | 1.16354 | 153.51943 | 36864 ft | 494 kts | 147° |
| 2026-05-06 22:03 | 1.10494 | 153.55515 | 36872 ft | 494 kts | 147° |
| 2026-05-06 22:03 | 1.04625 | 153.59091 | 36868 ft | 494 kts | 147° |
| 2026-05-06 22:04 | 0.98757 | 153.62667 | 36872 ft | 494 kts | 147° |
| 2026-05-06 22:04 | 0.92886 | 153.66244 | 36869 ft | 494 kts | 147° |
| 2026-05-06 22:05 | 0.87009 | 153.69824 | 36869 ft | 495 kts | 147° |
| 2026-05-06 22:05 | 0.81135 | 153.73403 | 36868 ft | 495 kts | 147° |
| 2026-05-06 22:06 | 0.75249 | 153.76990 | 36867 ft | 495 kts | 147° |
| 2026-05-06 22:06 | 0.69371 | 153.80570 | 36866 ft | 495 kts | 147° |
| 2026-05-06 22:07 | 0.63491 | 153.84152 | 36870 ft | 495 kts | 147° |
| 2026-05-06 22:07 | 0.57609 | 153.87735 | 36869 ft | 494 kts | 147° |
| 2026-05-06 22:08 | 0.52730 | 153.90708 | 36866 ft | 494 kts | 147° |
| 2026-05-06 22:08 | 0.45913 | 153.94860 | 36864 ft | 494 kts | 147° |
| 2026-05-06 22:09 | 0.40055 | 153.98429 | 36866 ft | 493 kts | 147° |
| 2026-05-06 22:09 | 0.35141 | 154.01422 | 36868 ft | 493 kts | 147° |
| 2026-05-06 22:10 | 0.28337 | 154.05566 | 36868 ft | 493 kts | 147° |
| 2026-05-06 22:10 | 0.23430 | 154.08555 | 36868 ft | 493 kts | 147° |
| 2026-05-06 22:11 | 0.17611 | 154.12100 | 36869 ft | 493 kts | 147° |
| 2026-05-06 22:11 | 0.11756 | 154.15666 | 36871 ft | 493 kts | 147° |
| 2026-05-06 22:12 | 0.05905 | 154.19230 | 36869 ft | 493 kts | 147° |
| 2026-05-06 22:12 | 0.00052 | 154.22795 | 36871 ft | 493 kts | 147° |
| 2026-05-06 22:13 | -0.05800 | 154.26350 | 36872 ft | 492 kts | 147° |
| 2026-05-06 22:13 | -0.11659 | 154.29902 | 36873 ft | 493 kts | 147° |
| 2026-05-06 22:14 | -0.17520 | 154.33456 | 36871 ft | 493 kts | 147° |
| 2026-05-06 22:14 | -0.23376 | 154.37009 | 36870 ft | 493 kts | 147° |
| 2026-05-06 22:15 | -0.29237 | 154.40564 | 36871 ft | 492 kts | 147° |
| 2026-05-06 22:15 | -0.35093 | 154.44118 | 36875 ft | 492 kts | 147° |
| 2026-05-06 22:16 | -0.40945 | 154.47668 | 36872 ft | 492 kts | 147° |
| 2026-05-06 22:16 | -0.46797 | 154.51219 | 36874 ft | 492 kts | 147° |
| 2026-05-06 22:17 | -0.52649 | 154.54770 | 36877 ft | 492 kts | 147° |
| 2026-05-06 22:17 | -0.58502 | 154.58321 | 36874 ft | 492 kts | 147° |
| 2026-05-06 22:18 | -0.64351 | 154.61870 | 36870 ft | 492 kts | 148° |
| 2026-05-06 22:18 | -0.70200 | 154.65419 | 36871 ft | 492 kts | 148° |
| 2026-05-06 22:19 | -0.76045 | 154.68966 | 36872 ft | 492 kts | 148° |
| 2026-05-06 22:19 | -0.81890 | 154.72513 | 36869 ft | 492 kts | 148° |
| 2026-05-06 22:20 | -0.87734 | 154.76060 | 36868 ft | 492 kts | 148° |
| 2026-05-06 22:20 | -0.93580 | 154.79608 | 36874 ft | 492 kts | 148° |
| 2026-05-06 22:21 | -0.99427 | 154.83156 | 36874 ft | 492 kts | 148° |
| 2026-05-06 22:21 | -1.05278 | 154.86708 | 36873 ft | 492 kts | 148° |
| 2026-05-06 22:22 | -1.11086 | 154.90233 | 36871 ft | 492 kts | 148° |
| 2026-05-06 22:22 | -1.16935 | 154.93783 | 36874 ft | 492 kts | 148° |
| 2026-05-06 22:23 | -1.22785 | 154.97333 | 36869 ft | 492 kts | 148° |
| 2026-05-06 22:23 | -1.28636 | 155.00885 | 36873 ft | 492 kts | 148° |
| 2026-05-06 22:24 | -1.34484 | 155.04436 | 36871 ft | 492 kts | 148° |
| 2026-05-06 22:24 | -1.40332 | 155.07986 | 36872 ft | 492 kts | 148° |
| 2026-05-06 22:25 | -1.46185 | 155.11540 | 36871 ft | 492 kts | 148° |
| 2026-05-06 22:25 | -1.52034 | 155.15091 | 36872 ft | 492 kts | 148° |
| 2026-05-06 22:26 | -1.57882 | 155.18642 | 36872 ft | 492 kts | 148° |
| 2026-05-06 22:26 | -1.63724 | 155.22190 | 36871 ft | 492 kts | 148° |
| 2026-05-06 22:27 | -1.69572 | 155.25741 | 36873 ft | 492 kts | 148° |
| 2026-05-06 22:27 | -1.75416 | 155.29291 | 36876 ft | 492 kts | 148° |
| 2026-05-06 22:28 | -1.81261 | 155.32841 | 36873 ft | 491 kts | 148° |
| 2026-05-06 22:28 | -1.87105 | 155.36391 | 36873 ft | 491 kts | 148° |
| 2026-05-06 22:29 | -1.92942 | 155.39937 | 36872 ft | 491 kts | 148° |
| 2026-05-06 22:29 | -1.98783 | 155.43486 | 36873 ft | 491 kts | 148° |
| 2026-05-06 22:30 | -2.04624 | 155.47035 | 36872 ft | 492 kts | 148° |
| 2026-05-06 22:30 | -2.10472 | 155.50588 | 36875 ft | 492 kts | 148° |
| 2026-05-06 22:31 | -2.16321 | 155.54142 | 36875 ft | 492 kts | 148° |
| 2026-05-06 22:31 | -2.22172 | 155.57699 | 36872 ft | 492 kts | 147° |
| 2026-05-06 22:32 | -2.28026 | 155.61256 | 36874 ft | 492 kts | 147° |
| 2026-05-06 22:32 | -2.33882 | 155.64816 | 36876 ft | 493 kts | 147° |
| 2026-05-06 22:33 | -2.39699 | 155.68353 | 36876 ft | 493 kts | 147° |
| 2026-05-06 22:33 | -2.45555 | 155.71913 | 36874 ft | 493 kts | 148° |
| 2026-05-06 22:34 | -2.51412 | 155.75475 | 36882 ft | 493 kts | 148° |
| 2026-05-06 22:34 | -2.57272 | 155.79038 | 36875 ft | 493 kts | 148° |
| 2026-05-06 22:35 | -2.63134 | 155.82603 | 36872 ft | 493 kts | 148° |
| 2026-05-06 22:35 | -2.69000 | 155.86171 | 36873 ft | 493 kts | 147° |
| 2026-05-06 22:36 | -2.74863 | 155.89738 | 36873 ft | 493 kts | 147° |
| 2026-05-06 22:36 | -2.80726 | 155.93305 | 36877 ft | 493 kts | 147° |
| 2026-05-06 22:37 | -2.86598 | 155.96878 | 36873 ft | 494 kts | 147° |
| 2026-05-06 22:37 | -2.92465 | 156.00448 | 36875 ft | 494 kts | 148° |
| 2026-05-06 22:38 | -2.98335 | 156.04021 | 36876 ft | 494 kts | 148° |
| 2026-05-06 22:38 | -3.04206 | 156.07594 | 36877 ft | 494 kts | 148° |
| 2026-05-06 22:39 | -3.10076 | 156.11168 | 36875 ft | 494 kts | 148° |
| 2026-05-06 22:39 | -3.15907 | 156.14718 | 36877 ft | 494 kts | 148° |
| 2026-05-06 22:40 | -3.21779 | 156.18294 | 36879 ft | 494 kts | 148° |
| 2026-05-06 22:40 | -3.27660 | 156.21876 | 36873 ft | 495 kts | 148° |
| 2026-05-06 22:41 | -3.36484 | 156.27250 | 36875 ft | 495 kts | 148° |
| 2026-05-06 22:42 | -3.42377 | 156.30841 | 36875 ft | 496 kts | 148° |
| 2026-05-06 22:42 | -3.48268 | 156.34430 | 36874 ft | 496 kts | 148° |
| 2026-05-06 22:43 | -3.54166 | 156.38022 | 36878 ft | 496 kts | 147° |
| 2026-05-06 22:43 | -3.60055 | 156.41612 | 36880 ft | 496 kts | 147° |
| 2026-05-06 22:44 | -3.65946 | 156.45204 | 36880 ft | 496 kts | 147° |
| 2026-05-06 22:44 | -3.71839 | 156.48798 | 36877 ft | 496 kts | 147° |
| 2026-05-06 22:45 | -3.77731 | 156.52391 | 36878 ft | 496 kts | 147° |
| 2026-05-06 22:45 | -3.83625 | 156.55985 | 36882 ft | 496 kts | 147° |
| 2026-05-06 22:46 | -3.89479 | 156.59556 | 36881 ft | 496 kts | 147° |
| 2026-05-06 22:46 | -3.95379 | 156.63155 | 36880 ft | 496 kts | 147° |
| 2026-05-06 22:47 | -4.01280 | 156.66756 | 36879 ft | 497 kts | 147° |
| 2026-05-06 22:47 | -4.07181 | 156.70358 | 36878 ft | 497 kts | 147° |
| 2026-05-06 22:48 | -4.13083 | 156.73960 | 36877 ft | 497 kts | 147° |
| 2026-05-06 22:48 | -4.18988 | 156.77565 | 36882 ft | 497 kts | 147° |
| 2026-05-06 22:49 | -4.24898 | 156.81174 | 36878 ft | 497 kts | 147° |
| 2026-05-06 22:49 | -4.30810 | 156.84785 | 36884 ft | 498 kts | 147° |
| 2026-05-06 22:50 | -4.36718 | 156.88393 | 36881 ft | 498 kts | 148° |
| 2026-05-06 22:50 | -4.42630 | 156.92005 | 36886 ft | 498 kts | 148° |
| 2026-05-06 22:51 | -4.48544 | 156.95619 | 36886 ft | 498 kts | 148° |
| 2026-05-06 22:51 | -4.54460 | 156.99235 | 36886 ft | 498 kts | 148° |
| 2026-05-06 22:52 | -4.60371 | 157.02848 | 36886 ft | 498 kts | 148° |
| 2026-05-06 22:52 | -4.66289 | 157.06467 | 36887 ft | 498 kts | 148° |
| 2026-05-06 22:53 | -4.72213 | 157.10090 | 36883 ft | 499 kts | 148° |
| 2026-05-06 22:53 | -4.78132 | 157.13710 | 36883 ft | 499 kts | 148° |
| 2026-05-06 22:54 | -4.84055 | 157.17334 | 36884 ft | 498 kts | 148° |
| 2026-05-06 22:54 | -4.89973 | 157.20955 | 36881 ft | 498 kts | 148° |
| 2026-05-06 22:55 | -4.95850 | 157.24552 | 36884 ft | 498 kts | 148° |
| 2026-05-06 22:55 | -5.01763 | 157.28172 | 36883 ft | 498 kts | 148° |
| 2026-05-06 22:56 | -5.07677 | 157.31793 | 36885 ft | 498 kts | 148° |
| 2026-05-06 22:56 | -5.13589 | 157.35414 | 36880 ft | 498 kts | 148° |
| 2026-05-06 22:57 | -5.19498 | 157.39034 | 36885 ft | 498 kts | 148° |
| 2026-05-06 22:57 | -5.25412 | 157.42657 | 36882 ft | 498 kts | 148° |
| 2026-05-06 22:58 | -5.31319 | 157.46277 | 36881 ft | 498 kts | 148° |
| 2026-05-06 22:58 | -5.36268 | 157.49310 | 36883 ft | 498 kts | 148° |
| 2026-05-06 22:59 | -5.42139 | 157.52910 | 36880 ft | 498 kts | 148° |
| 2026-05-06 22:59 | -5.48050 | 157.56536 | 36886 ft | 498 kts | 148° |
| 2026-05-06 23:00 | -5.53963 | 157.60163 | 36887 ft | 498 kts | 148° |
| 2026-05-06 23:00 | -5.59882 | 157.63795 | 36883 ft | 499 kts | 148° |
| 2026-05-06 23:01 | -5.65798 | 157.67440 | 36883 ft | 499 kts | 148° |
| 2026-05-06 23:01 | -5.71708 | 157.71104 | 36887 ft | 500 kts | 148° |
| 2026-05-06 23:02 | -5.77632 | 157.74779 | 36885 ft | 500 kts | 148° |
| 2026-05-06 23:02 | -5.83558 | 157.78455 | 36884 ft | 501 kts | 148° |
| 2026-05-06 23:03 | -5.89485 | 157.82132 | 36886 ft | 501 kts | 148° |
| 2026-05-06 23:03 | -5.95426 | 157.85816 | 36885 ft | 502 kts | 148° |
| 2026-05-06 23:04 | -6.01361 | 157.89500 | 36886 ft | 502 kts | 147° |
| 2026-05-06 23:04 | -6.07304 | 157.93190 | 36883 ft | 502 kts | 148° |
| 2026-05-06 23:05 | -6.13206 | 157.96852 | 36885 ft | 502 kts | 148° |
| 2026-05-06 23:05 | -6.19150 | 158.00541 | 36886 ft | 502 kts | 148° |
| 2026-05-06 23:06 | -6.25094 | 158.04233 | 36884 ft | 502 kts | 148° |
| 2026-05-06 23:06 | -6.31041 | 158.07928 | 36882 ft | 502 kts | 148° |
| 2026-05-06 23:07 | -6.36985 | 158.11623 | 36884 ft | 503 kts | 148° |
| 2026-05-06 23:07 | -6.42933 | 158.15321 | 36888 ft | 503 kts | 148° |
| 2026-05-06 23:08 | -6.48883 | 158.19020 | 36882 ft | 503 kts | 148° |
| 2026-05-06 23:08 | -6.54839 | 158.22725 | 36883 ft | 503 kts | 148° |
| 2026-05-06 23:09 | -6.60793 | 158.26429 | 36881 ft | 503 kts | 148° |
| 2026-05-06 23:09 | -6.66752 | 158.30138 | 36883 ft | 503 kts | 148° |
| 2026-05-06 23:10 | -6.72707 | 158.33845 | 36883 ft | 503 kts | 148° |
| 2026-05-06 23:10 | -6.78659 | 158.37551 | 36885 ft | 503 kts | 148° |
| 2026-05-06 23:11 | -6.84613 | 158.41259 | 36887 ft | 503 kts | 148° |
| 2026-05-06 23:11 | -6.90562 | 158.44966 | 36884 ft | 503 kts | 148° |
| 2026-05-06 23:12 | -6.96513 | 158.48675 | 36880 ft | 503 kts | 148° |
| 2026-05-06 23:12 | -7.02468 | 158.52388 | 36883 ft | 503 kts | 148° |
| 2026-05-06 23:13 | -7.08422 | 158.56102 | 36891 ft | 504 kts | 148° |
| 2026-05-06 23:13 | -7.14382 | 158.59819 | 36887 ft | 504 kts | 148° |
| 2026-05-06 23:14 | -7.20344 | 158.63539 | 36888 ft | 504 kts | 148° |
| 2026-05-06 23:14 | -7.26266 | 158.67236 | 36890 ft | 504 kts | 148° |
| 2026-05-06 23:15 | -7.32226 | 158.70957 | 36889 ft | 504 kts | 148° |
| 2026-05-06 23:15 | -7.38182 | 158.74677 | 36890 ft | 504 kts | 148° |
| 2026-05-06 23:16 | -7.44143 | 158.78401 | 36890 ft | 504 kts | 148° |
| 2026-05-06 23:16 | -7.50094 | 158.82121 | 36893 ft | 504 kts | 148° |
| 2026-05-06 23:17 | -7.56047 | 158.85843 | 36888 ft | 504 kts | 148° |
| 2026-05-06 23:17 | -7.62000 | 158.89565 | 36888 ft | 504 kts | 148° |
| 2026-05-06 23:18 | -7.67959 | 158.93294 | 36893 ft | 504 kts | 148° |
| 2026-05-06 23:18 | -7.73924 | 158.97027 | 36893 ft | 505 kts | 148° |
| 2026-05-06 23:19 | -7.79887 | 159.00760 | 36890 ft | 505 kts | 148° |
| 2026-05-06 23:19 | -7.85856 | 159.04499 | 36892 ft | 505 kts | 148° |
| 2026-05-06 23:20 | -7.91814 | 159.08231 | 36893 ft | 505 kts | 148° |
| 2026-05-06 23:20 | -7.97775 | 159.11967 | 36892 ft | 504 kts | 148° |
| 2026-05-06 23:21 | -8.03739 | 159.15706 | 36895 ft | 504 kts | 148° |
| 2026-05-06 23:21 | -8.09702 | 159.19445 | 36898 ft | 504 kts | 148° |
| 2026-05-06 23:22 | -8.15662 | 159.23183 | 36894 ft | 504 kts | 148° |
| 2026-05-06 23:22 | -8.21581 | 159.26896 | 36899 ft | 504 kts | 148° |
| 2026-05-06 23:23 | -8.27538 | 159.30635 | 36896 ft | 504 kts | 148° |
| 2026-05-06 23:23 | -8.33496 | 159.34376 | 36901 ft | 504 kts | 148° |
| 2026-05-06 23:24 | -8.39450 | 159.38115 | 36900 ft | 504 kts | 148° |
| 2026-05-06 23:24 | -8.45406 | 159.41857 | 36899 ft | 504 kts | 148° |
| 2026-05-06 23:25 | -8.51355 | 159.45596 | 36897 ft | 503 kts | 148° |
| 2026-05-06 23:25 | -8.57299 | 159.49335 | 36892 ft | 503 kts | 148° |
| 2026-05-06 23:26 | -8.63245 | 159.53076 | 36894 ft | 503 kts | 148° |
| 2026-05-06 23:26 | -8.69189 | 159.56817 | 36893 ft | 503 kts | 148° |
| 2026-05-06 23:27 | -8.75129 | 159.60556 | 36891 ft | 503 kts | 148° |
| 2026-05-06 23:27 | -8.81070 | 159.64298 | 36893 ft | 503 kts | 148° |
| 2026-05-06 23:28 | -8.87005 | 159.68038 | 36894 ft | 503 kts | 148° |
| 2026-05-06 23:28 | -8.92949 | 159.71785 | 36892 ft | 503 kts | 148° |
| 2026-05-06 23:29 | -8.98892 | 159.75534 | 36891 ft | 503 kts | 148° |
| 2026-05-06 23:29 | -9.04834 | 159.79283 | 36891 ft | 503 kts | 148° |
| 2026-05-06 23:30 | -9.10775 | 159.83033 | 36897 ft | 504 kts | 149° |
| 2026-05-06 23:30 | -9.16722 | 159.86787 | 36893 ft | 504 kts | 149° |
| 2026-05-06 23:31 | -9.22667 | 159.90541 | 36895 ft | 504 kts | 149° |
| 2026-05-06 23:31 | -9.28569 | 159.94270 | 36890 ft | 503 kts | 149° |
| 2026-05-06 23:32 | -9.34508 | 159.98025 | 36880 ft | 503 kts | 149° |
| 2026-05-06 23:32 | -9.40450 | 160.01783 | 36888 ft | 503 kts | 149° |
| 2026-05-06 23:33 | -9.46603 | 160.05142 | 36883 ft | 502 kts | 155° |
| 2026-05-06 23:33 | -9.52935 | 160.08149 | 36889 ft | 502 kts | 156° |
| 2026-05-06 23:34 | -9.59295 | 160.11079 | 36895 ft | 502 kts | 156° |
| 2026-05-06 23:34 | -9.65663 | 160.13997 | 36903 ft | 502 kts | 157° |
| 2026-05-06 23:35 | -9.72027 | 160.16929 | 36910 ft | 502 kts | 156° |
| 2026-05-06 23:35 | -9.78378 | 160.19870 | 36919 ft | 502 kts | 157° |
| 2026-05-06 23:36 | -9.84736 | 160.22819 | 36920 ft | 502 kts | 157° |
| 2026-05-06 23:36 | -9.91088 | 160.25768 | 36923 ft | 502 kts | 157° |
| 2026-05-06 23:37 | -9.97436 | 160.28716 | 36921 ft | 502 kts | 157° |
| 2026-05-06 23:37 | -10.03784 | 160.31663 | 36916 ft | 502 kts | 157° |
| 2026-05-06 23:38 | -10.10138 | 160.34615 | 36914 ft | 502 kts | 157° |
| 2026-05-06 23:38 | -10.16486 | 160.37566 | 36905 ft | 502 kts | 157° |
| 2026-05-06 23:39 | -10.22838 | 160.40520 | 36905 ft | 502 kts | 157° |
| 2026-05-06 23:39 | -10.29190 | 160.43476 | 36908 ft | 502 kts | 157° |
| 2026-05-06 23:40 | -10.35540 | 160.46432 | 36908 ft | 502 kts | 157° |
| 2026-05-06 23:40 | -10.41891 | 160.49391 | 36906 ft | 502 kts | 157° |
| 2026-05-06 23:41 | -10.48204 | 160.52334 | 36904 ft | 502 kts | 157° |
| 2026-05-06 23:41 | -10.54558 | 160.55298 | 36902 ft | 502 kts | 157° |
| 2026-05-06 23:42 | -10.60913 | 160.58263 | 36908 ft | 502 kts | 157° |
| 2026-05-06 23:42 | -10.67265 | 160.61229 | 36908 ft | 503 kts | 157° |
| 2026-05-06 23:43 | -10.73617 | 160.64196 | 36905 ft | 503 kts | 157° |
| 2026-05-06 23:43 | -10.79977 | 160.67168 | 36903 ft | 503 kts | 158° |
| 2026-05-06 23:44 | -10.86332 | 160.70139 | 36904 ft | 503 kts | 158° |
| 2026-05-06 23:44 | -10.92687 | 160.73112 | 36910 ft | 503 kts | 158° |
| 2026-05-06 23:45 | -10.99037 | 160.76086 | 36905 ft | 503 kts | 158° |
| 2026-05-06 23:45 | -11.05387 | 160.79068 | 36908 ft | 503 kts | 158° |
| 2026-05-06 23:46 | -11.11738 | 160.82053 | 36908 ft | 503 kts | 158° |
| 2026-05-06 23:46 | -11.18083 | 160.85036 | 36905 ft | 503 kts | 158° |
| 2026-05-06 23:47 | -11.24432 | 160.88023 | 36908 ft | 502 kts | 158° |
| 2026-05-06 23:47 | -11.30780 | 160.91009 | 36908 ft | 502 kts | 157° |
| 2026-05-06 23:48 | -11.37087 | 160.93979 | 36904 ft | 502 kts | 157° |
| 2026-05-06 23:48 | -11.42399 | 160.96481 | 36911 ft | 502 kts | 157° |
| 2026-05-06 23:49 | -11.48749 | 160.99473 | 36909 ft | 503 kts | 157° |
| 2026-05-06 23:49 | -11.55098 | 161.02466 | 36908 ft | 503 kts | 157° |
| 2026-05-06 23:50 | -11.61440 | 161.05458 | 36906 ft | 502 kts | 157° |
| 2026-05-06 23:50 | -11.70913 | 161.09929 | 36904 ft | 502 kts | 157° |
| 2026-05-06 23:51 | -11.77258 | 161.12925 | 36911 ft | 502 kts | 157° |
| 2026-05-06 23:51 | -11.83596 | 161.15920 | 36911 ft | 502 kts | 157° |
| 2026-05-06 23:52 | -11.89933 | 161.18916 | 36916 ft | 502 kts | 157° |
| 2026-05-06 23:52 | -11.96266 | 161.21912 | 36913 ft | 502 kts | 157° |
| 2026-05-06 23:53 | -12.02597 | 161.24908 | 36911 ft | 502 kts | 157° |
| 2026-05-06 23:53 | -12.08934 | 161.27908 | 36914 ft | 502 kts | 157° |
| 2026-05-06 23:54 | -12.15265 | 161.30908 | 36916 ft | 502 kts | 157° |
| 2026-05-06 23:54 | -12.21596 | 161.33908 | 36914 ft | 501 kts | 157° |
| 2026-05-06 23:55 | -12.27926 | 161.36910 | 36914 ft | 501 kts | 157° |
| 2026-05-06 23:55 | -12.34251 | 161.39911 | 36916 ft | 501 kts | 157° |
| 2026-05-06 23:56 | -12.40581 | 161.42917 | 36913 ft | 501 kts | 157° |
| 2026-05-06 23:56 | -12.46905 | 161.45920 | 36914 ft | 501 kts | 157° |
| 2026-05-06 23:57 | -12.53233 | 161.48928 | 36914 ft | 501 kts | 157° |
| 2026-05-06 23:57 | -12.59560 | 161.51937 | 36911 ft | 501 kts | 157° |
| 2026-05-06 23:58 | -12.65886 | 161.54947 | 36913 ft | 501 kts | 157° |
| 2026-05-06 23:58 | -12.72210 | 161.57957 | 36919 ft | 501 kts | 157° |
| 2026-05-06 23:59 | -12.78024 | 161.60726 | 36915 ft | 501 kts | 157° |
| 2026-05-06 23:59 | -12.84280 | 161.63708 | 36911 ft | 501 kts | 157° |
| 2026-05-07 00:00 | -12.90602 | 161.66722 | 36917 ft | 501 kts | 157° |
| 2026-05-07 00:00 | -12.96925 | 161.69739 | 36916 ft | 501 kts | 157° |
| 2026-05-07 00:01 | -13.03240 | 161.72753 | 36916 ft | 501 kts | 157° |
| 2026-05-07 00:01 | -13.09565 | 161.75775 | 36918 ft | 501 kts | 157° |
| 2026-05-07 00:02 | -13.15883 | 161.78794 | 36918 ft | 501 kts | 158° |
| 2026-05-07 00:02 | -13.22196 | 161.81812 | 36917 ft | 501 kts | 158° |
| 2026-05-07 00:03 | -13.28478 | 161.84817 | 36920 ft | 501 kts | 158° |
| 2026-05-07 00:03 | -13.34794 | 161.87841 | 36919 ft | 501 kts | 158° |
| 2026-05-07 00:04 | -13.41112 | 161.90868 | 36923 ft | 501 kts | 158° |
| 2026-05-07 00:04 | -13.47430 | 161.93895 | 36925 ft | 501 kts | 158° |
| 2026-05-07 00:05 | -13.53749 | 161.96925 | 36921 ft | 501 kts | 158° |
| 2026-05-07 00:05 | -13.60072 | 161.99959 | 36924 ft | 501 kts | 158° |
| 2026-05-07 00:06 | -13.66393 | 162.02994 | 36922 ft | 502 kts | 158° |
| 2026-05-07 00:06 | -13.72716 | 162.06032 | 36920 ft | 502 kts | 158° |
| 2026-05-07 00:07 | -13.79039 | 162.09072 | 36917 ft | 502 kts | 158° |
| 2026-05-07 00:07 | -13.85365 | 162.12114 | 36923 ft | 502 kts | 158° |
| 2026-05-07 00:08 | -13.91691 | 162.15158 | 36928 ft | 502 kts | 158° |
| 2026-05-07 00:08 | -13.98013 | 162.18203 | 36924 ft | 502 kts | 158° |
| 2026-05-07 00:09 | -14.04344 | 162.21245 | 36922 ft | 502 kts | 158° |
| 2026-05-07 00:09 | -14.10671 | 162.24273 | 36926 ft | 502 kts | 158° |
| 2026-05-07 00:10 | -14.17005 | 162.27305 | 36926 ft | 501 kts | 158° |
| 2026-05-07 00:10 | -14.23329 | 162.30337 | 36923 ft | 501 kts | 158° |
| 2026-05-07 00:11 | -14.29651 | 162.33369 | 36927 ft | 501 kts | 158° |
| 2026-05-07 00:11 | -14.35975 | 162.36406 | 36924 ft | 501 kts | 158° |
| 2026-05-07 00:12 | -14.42293 | 162.39441 | 36928 ft | 501 kts | 158° |
| 2026-05-07 00:12 | -14.48567 | 162.42457 | 36927 ft | 501 kts | 158° |
| 2026-05-07 00:13 | -14.54888 | 162.45497 | 36930 ft | 501 kts | 158° |
| 2026-05-07 00:13 | -14.61207 | 162.48538 | 36927 ft | 501 kts | 158° |
| 2026-05-07 00:14 | -14.67519 | 162.51578 | 36930 ft | 501 kts | 158° |
| 2026-05-07 00:14 | -14.73830 | 162.54620 | 36929 ft | 501 kts | 158° |
| 2026-05-07 00:15 | -14.79703 | 162.57451 | 36931 ft | 501 kts | 158° |
| 2026-05-07 00:15 | -14.86014 | 162.60497 | 36932 ft | 500 kts | 158° |
| 2026-05-07 00:16 | -14.92323 | 162.63543 | 36931 ft | 500 kts | 158° |
| 2026-05-07 00:16 | -14.98628 | 162.66589 | 36932 ft | 500 kts | 158° |
| 2026-05-07 00:17 | -15.04894 | 162.69619 | 36933 ft | 500 kts | 158° |
| 2026-05-07 00:17 | -15.11193 | 162.72666 | 36933 ft | 500 kts | 158° |
| 2026-05-07 00:18 | -15.17492 | 162.75715 | 36934 ft | 500 kts | 158° |
| 2026-05-07 00:18 | -15.23791 | 162.78767 | 36937 ft | 500 kts | 158° |
| 2026-05-07 00:19 | -15.30091 | 162.81821 | 36936 ft | 500 kts | 158° |
| 2026-05-07 00:19 | -15.36382 | 162.84872 | 36935 ft | 499 kts | 158° |
| 2026-05-07 00:20 | -15.42676 | 162.87928 | 36932 ft | 499 kts | 158° |
| 2026-05-07 00:20 | -15.48967 | 162.90983 | 36936 ft | 499 kts | 159° |
| 2026-05-07 00:21 | -15.55253 | 162.94038 | 36937 ft | 499 kts | 159° |
| 2026-05-07 00:21 | -15.61541 | 162.97097 | 36938 ft | 499 kts | 159° |
| 2026-05-07 00:22 | -15.67826 | 163.00156 | 36940 ft | 499 kts | 159° |
| 2026-05-07 00:22 | -15.74108 | 163.03215 | 36944 ft | 499 kts | 159° |
| 2026-05-07 00:23 | -15.80392 | 163.06278 | 36941 ft | 499 kts | 159° |
| 2026-05-07 00:23 | -15.86669 | 163.09339 | 36943 ft | 498 kts | 159° |
| 2026-05-07 00:24 | -15.92948 | 163.12404 | 36944 ft | 498 kts | 159° |
| 2026-05-07 00:24 | -15.99223 | 163.15468 | 36945 ft | 498 kts | 159° |
| 2026-05-07 00:25 | -16.05497 | 163.18534 | 36947 ft | 498 kts | 159° |
| 2026-05-07 00:25 | -16.11769 | 163.21602 | 36945 ft | 498 kts | 159° |
| 2026-05-07 00:26 | -16.17999 | 163.24651 | 36946 ft | 498 kts | 159° |
| 2026-05-07 00:26 | -16.24315 | 163.27744 | 36947 ft | 498 kts | 159° |
| 2026-05-07 00:27 | -16.30542 | 163.30796 | 36947 ft | 498 kts | 159° |
| 2026-05-07 00:27 | -16.36812 | 163.33871 | 36950 ft | 498 kts | 159° |
| 2026-05-07 00:28 | -16.43083 | 163.36949 | 36952 ft | 498 kts | 159° |
| 2026-05-07 00:28 | -16.49350 | 163.40027 | 36950 ft | 498 kts | 159° |
| 2026-05-07 00:29 | -16.55627 | 163.43112 | 36949 ft | 498 kts | 159° |
| 2026-05-07 00:30 | -16.68166 | 163.49282 | 36952 ft | 498 kts | 159° |
| 2026-05-07 00:30 | -16.74437 | 163.52371 | 36954 ft | 499 kts | 159° |
| 2026-05-07 00:31 | -16.80710 | 163.55463 | 36953 ft | 499 kts | 159° |
| 2026-05-07 00:31 | -16.86987 | 163.58559 | 36953 ft | 499 kts | 159° |
| 2026-05-07 00:32 | -16.93268 | 163.61660 | 36957 ft | 499 kts | 159° |
| 2026-05-07 00:32 | -16.99545 | 163.64761 | 36958 ft | 499 kts | 159° |
| 2026-05-07 00:33 | -17.05829 | 163.67867 | 36958 ft | 500 kts | 159° |
| 2026-05-07 00:33 | -17.12113 | 163.70977 | 36962 ft | 500 kts | 159° |
| 2026-05-07 00:34 | -17.18399 | 163.74089 | 36955 ft | 500 kts | 159° |
| 2026-05-07 00:34 | -17.24690 | 163.77206 | 36957 ft | 500 kts | 159° |
| 2026-05-07 00:35 | -17.30981 | 163.80326 | 36960 ft | 501 kts | 159° |
| 2026-05-07 00:35 | -17.37279 | 163.83451 | 36965 ft | 501 kts | 159° |
| 2026-05-07 00:36 | -17.42511 | 163.86050 | 36961 ft | 501 kts | 159° |
| 2026-05-07 00:36 | -17.48805 | 163.89177 | 36957 ft | 501 kts | 159° |
| 2026-05-07 00:37 | -17.55103 | 163.92310 | 36960 ft | 501 kts | 159° |
| 2026-05-07 00:37 | -17.61407 | 163.95447 | 36975 ft | 502 kts | 159° |
| 2026-05-07 00:38 | -17.67714 | 163.98589 | 36966 ft | 502 kts | 159° |
| 2026-05-07 00:38 | -17.74018 | 164.01732 | 36968 ft | 502 kts | 159° |
| 2026-05-07 00:39 | -17.80328 | 164.04880 | 36968 ft | 502 kts | 159° |
| 2026-05-07 00:39 | -17.86636 | 164.08029 | 36972 ft | 502 kts | 159° |
| 2026-05-07 00:40 | -17.92935 | 164.11177 | 36966 ft | 502 kts | 159° |
| 2026-05-07 00:40 | -17.99260 | 164.14339 | 36973 ft | 502 kts | 159° |
| 2026-05-07 00:41 | -18.05567 | 164.17496 | 36972 ft | 502 kts | 159° |
| 2026-05-07 00:41 | -18.11836 | 164.20636 | 36971 ft | 502 kts | 160° |
| 2026-05-07 00:42 | -18.18185 | 164.23819 | 36974 ft | 502 kts | 160° |
| 2026-05-07 00:42 | -18.24455 | 164.26964 | 36974 ft | 502 kts | 160° |
| 2026-05-07 00:43 | -18.30761 | 164.30131 | 36978 ft | 502 kts | 160° |
| 2026-05-07 00:43 | -18.37068 | 164.33299 | 36977 ft | 502 kts | 160° |
| 2026-05-07 00:44 | -18.43378 | 164.36473 | 36976 ft | 502 kts | 160° |
| 2026-05-07 00:44 | -18.49684 | 164.39647 | 36975 ft | 503 kts | 160° |
| 2026-05-07 00:45 | -18.55997 | 164.42827 | 36977 ft | 503 kts | 160° |
| 2026-05-07 00:45 | -18.62304 | 164.46006 | 36979 ft | 503 kts | 160° |
| 2026-05-07 00:46 | -18.68614 | 164.49190 | 36984 ft | 503 kts | 160° |
| 2026-05-07 00:46 | -18.74920 | 164.52375 | 36983 ft | 503 kts | 160° |
| 2026-05-07 00:47 | -18.81227 | 164.55562 | 36983 ft | 503 kts | 160° |
| 2026-05-07 00:47 | -18.87538 | 164.58755 | 36987 ft | 503 kts | 160° |
| 2026-05-07 00:48 | -18.93838 | 164.61944 | 36986 ft | 502 kts | 160° |
| 2026-05-07 00:48 | -19.00144 | 164.65139 | 36984 ft | 502 kts | 160° |
| 2026-05-07 00:49 | -19.06443 | 164.68333 | 36985 ft | 502 kts | 160° |
| 2026-05-07 00:49 | -19.12746 | 164.71532 | 36985 ft | 502 kts | 160° |
| 2026-05-07 00:50 | -19.19052 | 164.74735 | 36988 ft | 503 kts | 160° |
| 2026-05-07 00:50 | -19.25356 | 164.77940 | 36994 ft | 503 kts | 160° |
| 2026-05-07 00:51 | -19.31659 | 164.81147 | 36989 ft | 503 kts | 160° |
| 2026-05-07 00:51 | -19.37961 | 164.84356 | 36988 ft | 503 kts | 160° |
| 2026-05-07 00:52 | -19.44216 | 164.87545 | 36995 ft | 503 kts | 160° |
| 2026-05-07 00:52 | -19.50522 | 164.90762 | 36999 ft | 503 kts | 160° |
| 2026-05-07 00:53 | -19.56823 | 164.93979 | 36996 ft | 503 kts | 160° |
| 2026-05-07 00:53 | -19.63124 | 164.97200 | 36999 ft | 503 kts | 160° |
| 2026-05-07 00:54 | -19.69425 | 165.00422 | 36987 ft | 503 kts | 160° |
| 2026-05-07 00:54 | -19.75730 | 165.03650 | 36999 ft | 503 kts | 160° |
| 2026-05-07 00:55 | -19.82028 | 165.06877 | 36997 ft | 503 kts | 160° |
| 2026-05-07 00:55 | -19.88324 | 165.10106 | 37002 ft | 503 kts | 160° |
| 2026-05-07 00:56 | -19.94625 | 165.13340 | 37012 ft | 503 kts | 161° |
| 2026-05-07 00:56 | -20.00924 | 165.16576 | 37013 ft | 503 kts | 161° |
| 2026-05-07 00:57 | -20.07222 | 165.19815 | 37001 ft | 503 kts | 161° |
| 2026-05-07 00:57 | -20.13516 | 165.23054 | 37010 ft | 503 kts | 161° |
| 2026-05-07 00:58 | -20.19815 | 165.26299 | 37006 ft | 503 kts | 161° |
| 2026-05-07 00:58 | -20.26111 | 165.29554 | 37008 ft | 503 kts | 161° |
| 2026-05-07 00:59 | -20.35508 | 165.34430 | 37171 ft | 504 kts | 161° |
| 2026-05-07 00:59 | -20.38654 | 165.36065 | 37498 ft | 502 kts | 161° |
| 2026-05-07 01:00 | -20.41767 | 165.37685 | 37814 ft | 500 kts | 161° |
| 2026-05-07 01:00 | -20.44901 | 165.39315 | 38109 ft | 498 kts | 161° |
| 2026-05-07 01:00 | -20.48015 | 165.40935 | 38368 ft | 497 kts | 161° |
| 2026-05-07 01:00 | -20.51127 | 165.42553 | 38631 ft | 497 kts | 161° |
| 2026-05-07 01:01 | -20.54222 | 165.44164 | 38843 ft | 496 kts | 161° |
| 2026-05-07 01:01 | -20.57331 | 165.45781 | 38985 ft | 497 kts | 161° |
| 2026-05-07 01:01 | -20.60438 | 165.47398 | 39021 ft | 498 kts | 161° |
| 2026-05-07 01:02 | -20.66652 | 165.50637 | 39014 ft | 497 kts | 161° |
| 2026-05-07 01:02 | -20.72865 | 165.53878 | 39019 ft | 497 kts | 161° |
| 2026-05-07 01:03 | -20.79077 | 165.57122 | 39019 ft | 497 kts | 161° |
| 2026-05-07 01:03 | -20.85290 | 165.60369 | 39019 ft | 497 kts | 161° |
| 2026-05-07 01:04 | -20.91507 | 165.63620 | 39023 ft | 497 kts | 161° |
| 2026-05-07 01:04 | -20.97719 | 165.66873 | 39029 ft | 497 kts | 161° |
| 2026-05-07 01:05 | -21.03938 | 165.70132 | 39025 ft | 498 kts | 161° |
| 2026-05-07 01:05 | -21.10117 | 165.73373 | 39023 ft | 498 kts | 161° |
| 2026-05-07 01:06 | -21.16377 | 165.76660 | 39025 ft | 498 kts | 161° |
| 2026-05-07 01:06 | -21.22550 | 165.79905 | 39029 ft | 498 kts | 161° |
| 2026-05-07 01:07 | -21.28779 | 165.83182 | 39021 ft | 498 kts | 161° |
| 2026-05-07 01:07 | -21.34991 | 165.86452 | 39020 ft | 498 kts | 161° |
| 2026-05-07 01:08 | -21.41220 | 165.89735 | 39021 ft | 499 kts | 161° |
| 2026-05-07 01:08 | -21.47450 | 165.93025 | 39019 ft | 499 kts | 161° |
| 2026-05-07 01:09 | -21.53675 | 165.96322 | 39014 ft | 499 kts | 161° |
| 2026-05-07 01:09 | -21.59901 | 165.99614 | 39011 ft | 499 kts | 161° |
| 2026-05-07 01:10 | -21.66136 | 166.02910 | 39008 ft | 499 kts | 161° |
| 2026-05-07 01:10 | -21.72341 | 166.06190 | 39004 ft | 499 kts | 161° |
| 2026-05-07 01:11 | -21.78586 | 166.09498 | 39001 ft | 499 kts | 161° |
| 2026-05-07 01:11 | -21.84828 | 166.12809 | 38994 ft | 499 kts | 161° |
| 2026-05-07 01:12 | -21.91062 | 166.16119 | 38996 ft | 499 kts | 161° |
| 2026-05-07 01:12 | -21.97295 | 166.19431 | 38997 ft | 499 kts | 161° |
| 2026-05-07 01:13 | -22.03522 | 166.22752 | 38995 ft | 500 kts | 161° |
| 2026-05-07 01:13 | -22.09749 | 166.26095 | 38992 ft | 500 kts | 161° |
| 2026-05-07 01:14 | -22.15969 | 166.29440 | 38994 ft | 500 kts | 161° |
| 2026-05-07 01:14 | -22.22195 | 166.32790 | 38995 ft | 500 kts | 161° |
| 2026-05-07 01:15 | -22.28421 | 166.36141 | 38999 ft | 500 kts | 161° |
| 2026-05-07 01:15 | -22.34645 | 166.39495 | 38997 ft | 500 kts | 161° |
| 2026-05-07 01:16 | -22.40826 | 166.42829 | 39004 ft | 500 kts | 161° |
| 2026-05-07 01:16 | -22.47050 | 166.46189 | 39010 ft | 500 kts | 161° |
| 2026-05-07 01:17 | -22.53273 | 166.49552 | 39010 ft | 500 kts | 161° |
| 2026-05-07 01:17 | -22.59491 | 166.52917 | 39016 ft | 500 kts | 162° |
| 2026-05-07 01:18 | -22.65717 | 166.56288 | 39019 ft | 500 kts | 162° |
| 2026-05-07 01:18 | -22.71937 | 166.59660 | 39021 ft | 500 kts | 162° |
| 2026-05-07 01:19 | -22.78152 | 166.63033 | 39023 ft | 500 kts | 162° |
| 2026-05-07 01:19 | -22.84377 | 166.66415 | 39030 ft | 500 kts | 162° |
| 2026-05-07 01:20 | -22.90592 | 166.69795 | 39035 ft | 500 kts | 162° |
| 2026-05-07 01:20 | -22.96808 | 166.73178 | 39040 ft | 500 kts | 162° |
| 2026-05-07 01:21 | -23.03023 | 166.76565 | 39036 ft | 500 kts | 162° |
| 2026-05-07 01:21 | -23.09242 | 166.79957 | 39039 ft | 500 kts | 162° |
| 2026-05-07 01:22 | -23.15458 | 166.83351 | 39036 ft | 500 kts | 162° |
| 2026-05-07 01:22 | -23.21670 | 166.86746 | 39040 ft | 500 kts | 162° |
| 2026-05-07 01:23 | -23.27882 | 166.90146 | 39040 ft | 500 kts | 162° |
| 2026-05-07 01:23 | -23.34095 | 166.93549 | 39043 ft | 500 kts | 162° |
| 2026-05-07 01:24 | -23.40310 | 166.96957 | 39045 ft | 500 kts | 162° |
| 2026-05-07 01:24 | -23.46475 | 167.00341 | 39043 ft | 500 kts | 162° |
| 2026-05-07 01:25 | -23.52690 | 167.03756 | 39045 ft | 500 kts | 162° |
| 2026-05-07 01:25 | -23.58897 | 167.07171 | 39041 ft | 500 kts | 162° |
| 2026-05-07 01:26 | -23.64101 | 167.10037 | 39046 ft | 500 kts | 162° |
| 2026-05-07 01:26 | -23.71307 | 167.14009 | 39045 ft | 500 kts | 162° |
| 2026-05-07 01:27 | -23.76511 | 167.16880 | 39045 ft | 499 kts | 162° |
| 2026-05-07 01:27 | -23.82707 | 167.20302 | 39046 ft | 499 kts | 162° |
| 2026-05-07 01:28 | -23.88909 | 167.23732 | 39044 ft | 499 kts | 162° |
| 2026-05-07 01:28 | -23.95064 | 167.27139 | 39047 ft | 499 kts | 162° |
| 2026-05-07 01:29 | -24.01258 | 167.30572 | 39049 ft | 499 kts | 162° |
| 2026-05-07 01:29 | -24.07451 | 167.34008 | 39050 ft | 499 kts | 162° |
| 2026-05-07 01:30 | -24.13650 | 167.37451 | 39048 ft | 499 kts | 162° |
| 2026-05-07 01:30 | -24.19845 | 167.40894 | 39051 ft | 499 kts | 162° |
| 2026-05-07 01:31 | -24.26038 | 167.44340 | 39052 ft | 499 kts | 162° |
| 2026-05-07 01:31 | -24.32229 | 167.47789 | 39051 ft | 499 kts | 162° |
| 2026-05-07 01:32 | -24.38423 | 167.51243 | 39052 ft | 499 kts | 162° |
| 2026-05-07 01:32 | -24.44619 | 167.54703 | 39051 ft | 500 kts | 162° |
| 2026-05-07 01:33 | -24.50817 | 167.58168 | 39055 ft | 500 kts | 162° |
| 2026-05-07 01:33 | -24.57012 | 167.61635 | 39056 ft | 500 kts | 162° |
| 2026-05-07 01:34 | -24.63211 | 167.65109 | 39055 ft | 500 kts | 162° |
| 2026-05-07 01:34 | -24.69409 | 167.68586 | 39058 ft | 500 kts | 162° |
| 2026-05-07 01:35 | -24.75598 | 167.72062 | 39060 ft | 500 kts | 162° |
| 2026-05-07 01:35 | -24.81756 | 167.75526 | 39060 ft | 500 kts | 162° |
| 2026-05-07 01:36 | -24.87992 | 167.79043 | 39067 ft | 500 kts | 162° |
| 2026-05-07 01:36 | -24.94145 | 167.82519 | 39056 ft | 500 kts | 162° |
| 2026-05-07 01:37 | -25.00339 | 167.86021 | 39061 ft | 500 kts | 162° |
| 2026-05-07 01:37 | -25.06531 | 167.89527 | 39061 ft | 500 kts | 162° |
| 2026-05-07 01:38 | -25.12719 | 167.93034 | 39063 ft | 500 kts | 162° |
| 2026-05-07 01:38 | -25.18912 | 167.96548 | 39069 ft | 500 kts | 162° |
| 2026-05-07 01:39 | -25.25099 | 168.00063 | 39072 ft | 500 kts | 162° |
| 2026-05-07 01:39 | -25.31288 | 168.03582 | 39064 ft | 500 kts | 163° |
| 2026-05-07 01:40 | -25.37479 | 168.07107 | 39076 ft | 500 kts | 163° |
| 2026-05-07 01:40 | -25.43665 | 168.10633 | 39069 ft | 500 kts | 163° |
| 2026-05-07 01:41 | -25.49845 | 168.14159 | 39073 ft | 500 kts | 163° |
| 2026-05-07 01:41 | -25.56028 | 168.17691 | 39077 ft | 500 kts | 163° |
| 2026-05-07 01:42 | -25.62210 | 168.21228 | 39073 ft | 500 kts | 163° |
| 2026-05-07 01:42 | -25.68390 | 168.24767 | 39073 ft | 500 kts | 163° |
| 2026-05-07 01:43 | -25.74567 | 168.28308 | 39075 ft | 500 kts | 163° |
| 2026-05-07 01:43 | -25.80749 | 168.31857 | 39077 ft | 500 kts | 163° |
| 2026-05-07 01:44 | -25.86923 | 168.35405 | 39076 ft | 500 kts | 163° |
| 2026-05-07 01:44 | -25.93093 | 168.38954 | 39080 ft | 500 kts | 163° |
| 2026-05-07 01:45 | -25.99271 | 168.42514 | 39080 ft | 500 kts | 163° |
| 2026-05-07 01:45 | -26.05446 | 168.46074 | 39079 ft | 500 kts | 163° |
| 2026-05-07 01:46 | -26.11575 | 168.49613 | 39079 ft | 500 kts | 163° |
| 2026-05-07 01:46 | -26.17745 | 168.53181 | 39086 ft | 500 kts | 163° |
| 2026-05-07 01:47 | -26.23912 | 168.56750 | 39078 ft | 500 kts | 163° |
| 2026-05-07 01:47 | -26.30082 | 168.60326 | 39081 ft | 500 kts | 163° |
| 2026-05-07 01:48 | -26.36252 | 168.63906 | 39082 ft | 500 kts | 163° |
| 2026-05-07 01:48 | -26.42417 | 168.67487 | 39088 ft | 500 kts | 163° |
| 2026-05-07 01:49 | -26.48581 | 168.71073 | 39087 ft | 499 kts | 163° |
| 2026-05-07 01:49 | -26.54742 | 168.74660 | 39088 ft | 499 kts | 163° |
| 2026-05-07 01:50 | -26.60901 | 168.78251 | 39089 ft | 499 kts | 163° |
| 2026-05-07 01:50 | -26.67058 | 168.81846 | 39090 ft | 499 kts | 163° |
| 2026-05-07 01:51 | -26.73210 | 168.85441 | 39092 ft | 499 kts | 163° |
| 2026-05-07 01:51 | -26.79357 | 168.89038 | 39091 ft | 499 kts | 163° |
| 2026-05-07 01:52 | -26.85510 | 168.92643 | 39091 ft | 499 kts | 163° |
| 2026-05-07 01:52 | -26.91652 | 168.96246 | 39091 ft | 498 kts | 163° |
| 2026-05-07 01:53 | -26.97795 | 168.99854 | 39093 ft | 498 kts | 163° |
| 2026-05-07 01:53 | -27.03944 | 169.03471 | 39092 ft | 498 kts | 163° |
| 2026-05-07 01:54 | -27.10046 | 169.07064 | 39096 ft | 498 kts | 163° |
| 2026-05-07 01:54 | -27.16179 | 169.10682 | 39100 ft | 498 kts | 163° |
| 2026-05-07 01:55 | -27.22323 | 169.14311 | 39098 ft | 498 kts | 163° |
| 2026-05-07 01:55 | -27.28466 | 169.17944 | 39101 ft | 499 kts | 163° |
| 2026-05-07 01:56 | -27.34586 | 169.21569 | 39100 ft | 498 kts | 163° |
| 2026-05-07 01:56 | -27.40734 | 169.25215 | 39104 ft | 499 kts | 163° |
| 2026-05-07 01:57 | -27.46875 | 169.28861 | 39101 ft | 499 kts | 163° |
| 2026-05-07 01:57 | -27.53012 | 169.32508 | 39104 ft | 499 kts | 163° |
| 2026-05-07 01:58 | -27.59142 | 169.36157 | 39103 ft | 499 kts | 163° |
| 2026-05-07 01:58 | -27.65284 | 169.39817 | 39107 ft | 499 kts | 163° |
| 2026-05-07 01:59 | -27.71416 | 169.43476 | 39108 ft | 499 kts | 163° |
| 2026-05-07 01:59 | -27.77547 | 169.47140 | 39111 ft | 499 kts | 162° |
| 2026-05-07 02:00 | -27.83682 | 169.50810 | 39110 ft | 499 kts | 162° |
| 2026-05-07 02:00 | -27.89812 | 169.54482 | 39108 ft | 499 kts | 162° |
| 2026-05-07 02:01 | -27.95941 | 169.58158 | 39113 ft | 499 kts | 162° |
| 2026-05-07 02:01 | -28.02032 | 169.61817 | 39113 ft | 499 kts | 162° |
| 2026-05-07 02:02 | -28.08199 | 169.65525 | 39111 ft | 499 kts | 162° |
| 2026-05-07 02:02 | -28.14285 | 169.69189 | 39115 ft | 499 kts | 162° |
| 2026-05-07 02:03 | -28.20422 | 169.72889 | 39114 ft | 499 kts | 162° |
| 2026-05-07 02:03 | -28.26557 | 169.76594 | 39106 ft | 500 kts | 162° |
| 2026-05-07 02:04 | -28.32692 | 169.80303 | 39119 ft | 500 kts | 162° |
| 2026-05-07 02:04 | -28.38827 | 169.84016 | 39121 ft | 500 kts | 162° |
| 2026-05-07 02:05 | -28.44962 | 169.87735 | 39116 ft | 500 kts | 162° |
| 2026-05-07 02:05 | -28.51100 | 169.91460 | 39118 ft | 500 kts | 162° |
| 2026-05-07 02:06 | -28.57238 | 169.95191 | 39120 ft | 500 kts | 162° |
| 2026-05-07 02:06 | -28.63375 | 169.98926 | 39120 ft | 500 kts | 162° |
| 2026-05-07 02:07 | -28.69515 | 170.02667 | 39123 ft | 500 kts | 162° |
| 2026-05-07 02:07 | -28.78719 | 170.08285 | 39124 ft | 500 kts | 162° |
| 2026-05-07 02:08 | -28.84848 | 170.12033 | 39126 ft | 500 kts | 162° |
| 2026-05-07 02:08 | -28.90980 | 170.15788 | 39127 ft | 500 kts | 162° |
| 2026-05-07 02:09 | -28.97114 | 170.19550 | 39128 ft | 500 kts | 162° |
| 2026-05-07 02:09 | -29.03243 | 170.23311 | 39126 ft | 500 kts | 162° |
| 2026-05-07 02:10 | -29.09368 | 170.27076 | 39128 ft | 500 kts | 162° |
| 2026-05-07 02:10 | -29.15488 | 170.30842 | 39133 ft | 500 kts | 162° |
| 2026-05-07 02:11 | -29.21573 | 170.34591 | 39136 ft | 500 kts | 162° |
| 2026-05-07 02:11 | -29.27689 | 170.38366 | 39138 ft | 500 kts | 162° |
| 2026-05-07 02:12 | -29.33808 | 170.42148 | 39136 ft | 500 kts | 162° |
| 2026-05-07 02:12 | -29.39926 | 170.45936 | 39135 ft | 500 kts | 162° |
| 2026-05-07 02:13 | -29.46040 | 170.49726 | 39137 ft | 499 kts | 162° |
| 2026-05-07 02:13 | -29.51159 | 170.52903 | 39137 ft | 499 kts | 162° |
| 2026-05-07 02:14 | -29.57277 | 170.56705 | 39136 ft | 499 kts | 162° |
| 2026-05-07 02:14 | -29.63341 | 170.60478 | 39142 ft | 499 kts | 162° |
| 2026-05-07 02:15 | -29.69441 | 170.64279 | 39143 ft | 499 kts | 161° |
| 2026-05-07 02:15 | -29.75557 | 170.68095 | 39139 ft | 499 kts | 161° |
| 2026-05-07 02:16 | -29.81658 | 170.71907 | 39137 ft | 499 kts | 161° |
| 2026-05-07 02:16 | -29.87752 | 170.75721 | 39145 ft | 499 kts | 161° |
| 2026-05-07 02:17 | -29.93857 | 170.79547 | 39140 ft | 499 kts | 161° |
| 2026-05-07 02:17 | -29.99947 | 170.83368 | 39139 ft | 499 kts | 161° |
| 2026-05-07 02:18 | -30.06041 | 170.87198 | 39144 ft | 499 kts | 161° |
| 2026-05-07 02:18 | -30.12137 | 170.91035 | 39148 ft | 498 kts | 161° |
| 2026-05-07 02:19 | -30.18222 | 170.94871 | 39147 ft | 498 kts | 161° |
| 2026-05-07 02:19 | -30.24305 | 170.98710 | 39151 ft | 498 kts | 161° |
| 2026-05-07 02:20 | -30.30399 | 171.02561 | 39153 ft | 498 kts | 161° |
| 2026-05-07 02:20 | -30.36477 | 171.06408 | 39151 ft | 498 kts | 161° |
| 2026-05-07 02:21 | -30.42550 | 171.10258 | 39153 ft | 498 kts | 161° |
| 2026-05-07 02:21 | -30.48620 | 171.14111 | 39153 ft | 498 kts | 161° |
| 2026-05-07 02:22 | -30.54696 | 171.17973 | 39154 ft | 497 kts | 160° |
| 2026-05-07 02:22 | -30.60766 | 171.21837 | 39155 ft | 497 kts | 160° |
| 2026-05-07 02:23 | -30.66829 | 171.25702 | 39157 ft | 497 kts | 160° |
| 2026-05-07 02:23 | -30.72891 | 171.29573 | 39155 ft | 497 kts | 160° |
| 2026-05-07 02:24 | -30.78950 | 171.33448 | 39158 ft | 497 kts | 160° |
| 2026-05-07 02:24 | -30.85008 | 171.37327 | 39159 ft | 497 kts | 160° |
| 2026-05-07 02:25 | -30.91025 | 171.41184 | 39159 ft | 497 kts | 160° |
| 2026-05-07 02:25 | -30.97073 | 171.45068 | 39161 ft | 496 kts | 160° |
| 2026-05-07 02:26 | -31.03124 | 171.48959 | 39163 ft | 496 kts | 159° |
| 2026-05-07 02:26 | -31.09167 | 171.52852 | 39163 ft | 496 kts | 159° |
| 2026-05-07 02:27 | -31.15208 | 171.56748 | 39166 ft | 496 kts | 159° |
| 2026-05-07 02:27 | -31.21252 | 171.60652 | 39167 ft | 496 kts | 159° |
| 2026-05-07 02:28 | -31.27293 | 171.64559 | 39166 ft | 496 kts | 159° |
| 2026-05-07 02:28 | -31.33329 | 171.68470 | 39167 ft | 496 kts | 159° |
| 2026-05-07 02:29 | -31.39370 | 171.72389 | 39166 ft | 496 kts | 159° |
| 2026-05-07 02:29 | -31.45405 | 171.76310 | 39168 ft | 496 kts | 159° |
| 2026-05-07 02:30 | -31.51446 | 171.80241 | 39170 ft | 496 kts | 158° |
| 2026-05-07 02:30 | -31.57476 | 171.84172 | 39169 ft | 496 kts | 158° |
| 2026-05-07 02:31 | -31.63511 | 171.88110 | 39176 ft | 496 kts | 158° |
| 2026-05-07 02:31 | -31.69540 | 171.92051 | 39174 ft | 496 kts | 158° |
| 2026-05-07 02:32 | -31.75573 | 171.96001 | 39178 ft | 496 kts | 158° |
| 2026-05-07 02:32 | -31.81603 | 171.99955 | 39174 ft | 496 kts | 158° |
| 2026-05-07 02:33 | -31.87634 | 172.03914 | 39170 ft | 496 kts | 158° |
| 2026-05-07 02:33 | -31.93620 | 172.07851 | 39179 ft | 497 kts | 158° |
| 2026-05-07 02:34 | -31.99652 | 172.11823 | 39177 ft | 497 kts | 157° |
| 2026-05-07 02:34 | -32.05690 | 172.15806 | 39176 ft | 497 kts | 157° |
| 2026-05-07 02:35 | -32.11718 | 172.19788 | 39180 ft | 497 kts | 157° |
| 2026-05-07 02:35 | -32.17753 | 172.23781 | 39182 ft | 497 kts | 157° |
| 2026-05-07 02:36 | -32.23777 | 172.27773 | 39183 ft | 497 kts | 157° |
| 2026-05-07 02:36 | -32.29809 | 172.31776 | 39188 ft | 497 kts | 156° |
| 2026-05-07 02:37 | -32.35833 | 172.35780 | 39186 ft | 497 kts | 156° |
| 2026-05-07 02:37 | -32.41863 | 172.39795 | 39184 ft | 497 kts | 156° |
| 2026-05-07 02:38 | -32.47889 | 172.43812 | 39187 ft | 497 kts | 156° |
| 2026-05-07 02:38 | -32.53916 | 172.47837 | 39189 ft | 497 kts | 156° |
| 2026-05-07 02:39 | -32.59941 | 172.51867 | 39189 ft | 497 kts | 156° |
| 2026-05-07 02:39 | -32.65929 | 172.55878 | 39188 ft | 497 kts | 156° |
| 2026-05-07 02:40 | -32.71954 | 172.59919 | 39190 ft | 497 kts | 156° |
| 2026-05-07 02:40 | -32.77976 | 172.63966 | 39190 ft | 498 kts | 156° |
| 2026-05-07 02:41 | -32.84009 | 172.68026 | 39193 ft | 498 kts | 155° |
| 2026-05-07 02:41 | -32.90032 | 172.72086 | 39195 ft | 498 kts | 155° |
| 2026-05-07 02:42 | -32.96062 | 172.76157 | 39197 ft | 498 kts | 155° |
| 2026-05-07 02:42 | -33.02088 | 172.80232 | 39194 ft | 498 kts | 155° |
| 2026-05-07 02:43 | -33.08071 | 172.84285 | 39193 ft | 498 kts | 155° |
| 2026-05-07 02:43 | -33.14104 | 172.88377 | 39198 ft | 498 kts | 155° |
| 2026-05-07 02:44 | -33.20126 | 172.92469 | 39200 ft | 498 kts | 155° |
| 2026-05-07 02:44 | -33.26141 | 172.96562 | 39199 ft | 498 kts | 155° |
| 2026-05-07 02:45 | -33.32166 | 173.00669 | 39200 ft | 498 kts | 155° |
| 2026-05-07 02:45 | -33.38184 | 173.04777 | 39199 ft | 498 kts | 155° |
| 2026-05-07 02:46 | -33.44208 | 173.08897 | 39198 ft | 498 kts | 155° |
| 2026-05-07 02:46 | -33.50231 | 173.13022 | 39207 ft | 499 kts | 155° |
| 2026-05-07 02:47 | -33.56247 | 173.17149 | 39206 ft | 499 kts | 154° |
| 2026-05-07 02:47 | -33.62274 | 173.21289 | 39204 ft | 499 kts | 154° |
| 2026-05-07 02:48 | -33.68295 | 173.25434 | 39202 ft | 499 kts | 154° |
| 2026-05-07 02:48 | -33.74313 | 173.29582 | 39205 ft | 499 kts | 154° |
| 2026-05-07 02:49 | -33.80333 | 173.33740 | 39208 ft | 499 kts | 154° |
| 2026-05-07 02:49 | -33.86387 | 173.37822 | 39206 ft | 496 kts | 159° |
| 2026-05-07 02:50 | -33.89624 | 173.39118 | 39208 ft | 486 kts | 174° |
| 2026-05-07 02:50 | -33.92916 | 173.39674 | 39212 ft | 483 kts | 178° |
| 2026-05-07 02:50 | -33.99603 | 173.40458 | 39208 ft | 483 kts | 179° |
| 2026-05-07 02:51 | -34.06302 | 173.41227 | 39210 ft | 484 kts | 179° |
| 2026-05-07 02:51 | -34.13006 | 173.42005 | 39211 ft | 484 kts | 179° |
| 2026-05-07 02:52 | -34.19713 | 173.42798 | 39212 ft | 484 kts | 179° |
| 2026-05-07 02:52 | -34.26425 | 173.43598 | 39211 ft | 485 kts | 178° |
| 2026-05-07 02:53 | -34.33143 | 173.44401 | 39212 ft | 485 kts | 178° |
| 2026-05-07 02:53 | -34.39858 | 173.45206 | 39210 ft | 485 kts | 178° |
| 2026-05-07 02:54 | -34.46580 | 173.46014 | 39213 ft | 485 kts | 178° |
| 2026-05-07 02:54 | -34.53306 | 173.46823 | 39215 ft | 486 kts | 178° |
| 2026-05-07 02:55 | -34.59988 | 173.47628 | 39212 ft | 486 kts | 178° |
| 2026-05-07 02:55 | -34.66717 | 173.48440 | 39216 ft | 486 kts | 178° |
| 2026-05-07 02:56 | -34.73459 | 173.49255 | 39217 ft | 487 kts | 178° |
| 2026-05-07 02:56 | -34.80198 | 173.50071 | 39217 ft | 487 kts | 178° |
| 2026-05-07 02:57 | -34.86949 | 173.50890 | 39213 ft | 487 kts | 178° |
| 2026-05-07 02:57 | -34.93685 | 173.51708 | 39220 ft | 487 kts | 178° |
| 2026-05-07 02:58 | -35.00440 | 173.52530 | 39219 ft | 487 kts | 178° |
| 2026-05-07 02:58 | -35.07187 | 173.53352 | 39223 ft | 488 kts | 178° |
| 2026-05-07 02:59 | -35.13946 | 173.54177 | 39222 ft | 488 kts | 178° |
| 2026-05-07 02:59 | -35.20705 | 173.55004 | 39221 ft | 488 kts | 178° |
| 2026-05-07 03:00 | -35.27449 | 173.55831 | 38653 ft | 485 kts | 178° |
| 2026-05-07 03:00 | -35.30786 | 173.56240 | 38050 ft | 482 kts | 178° |
| 2026-05-07 03:00 | -35.34129 | 173.56650 | 37428 ft | 481 kts | 178° |
| 2026-05-07 03:01 | -35.37451 | 173.57058 | 36822 ft | 480 kts | 178° |
| 2026-05-07 03:01 | -35.40731 | 173.57461 | 36204 ft | 480 kts | 177° |
| 2026-05-07 03:01 | -35.44053 | 173.57869 | 35562 ft | 480 kts | 177° |
| 2026-05-07 03:01 | -35.47379 | 173.58278 | 34875 ft | 482 kts | 177° |
| 2026-05-07 03:02 | -35.50725 | 173.58689 | 34137 ft | 485 kts | 176° |
| 2026-05-07 03:02 | -35.54090 | 173.59105 | 33325 ft | 487 kts | 176° |
| 2026-05-07 03:02 | -35.57462 | 173.59522 | 32553 ft | 489 kts | 176° |
| 2026-05-07 03:02 | -35.60857 | 173.59941 | 31764 ft | 491 kts | 176° |
| 2026-05-07 03:03 | -35.64260 | 173.60362 | 30955 ft | 493 kts | 176° |
| 2026-05-07 03:03 | -35.66529 | 173.60643 | 30407 ft | 496 kts | 176° |
| 2026-05-07 03:03 | -35.69967 | 173.61068 | 29464 ft | 499 kts | 176° |
| 2026-05-07 03:03 | -35.73415 | 173.61497 | 28781 ft | 496 kts | 176° |
| 2026-05-07 03:04 | -35.76833 | 173.61922 | 28195 ft | 491 kts | 176° |
| 2026-05-07 03:04 | -35.80220 | 173.62344 | 27603 ft | 487 kts | 176° |
| 2026-05-07 03:04 | -35.83571 | 173.62761 | 27006 ft | 483 kts | 176° |
| 2026-05-07 03:04 | -35.86909 | 173.63176 | 26415 ft | 480 kts | 176° |
| 2026-05-07 03:05 | -35.90216 | 173.63588 | 25826 ft | 476 kts | 176° |
| 2026-05-07 03:05 | -35.93507 | 173.63998 | 25236 ft | 473 kts | 176° |
| 2026-05-07 03:05 | -35.96774 | 173.64405 | 24654 ft | 470 kts | 176° |
| 2026-05-07 03:05 | -36.00017 | 173.64810 | 24069 ft | 467 kts | 176° |
| 2026-05-07 03:06 | -36.03239 | 173.65213 | 23448 ft | 464 kts | 176° |
| 2026-05-07 03:06 | -36.06436 | 173.65613 | 22835 ft | 459 kts | 176° |
| 2026-05-07 03:06 | -36.09596 | 173.66009 | 22259 ft | 453 kts | 176° |
| 2026-05-07 03:06 | -36.12714 | 173.66401 | 21704 ft | 448 kts | 176° |
| 2026-05-07 03:07 | -36.15788 | 173.66786 | 21135 ft | 443 kts | 176° |
| 2026-05-07 03:07 | -36.18854 | 173.67171 | 20570 ft | 438 kts | 176° |
| 2026-05-07 03:07 | -36.21867 | 173.67549 | 20012 ft | 434 kts | 176° |
| 2026-05-07 03:07 | -36.24862 | 173.67925 | 19437 ft | 430 kts | 177° |
| 2026-05-07 03:08 | -36.27824 | 173.68297 | 18871 ft | 426 kts | 177° |
| 2026-05-07 03:08 | -36.30760 | 173.68667 | 18285 ft | 423 kts | 177° |
| 2026-05-07 03:08 | -36.33678 | 173.69033 | 17681 ft | 418 kts | 177° |
| 2026-05-07 03:08 | -36.36555 | 173.69427 | 17105 ft | 414 kts | 174° |
| 2026-05-07 03:09 | -36.39328 | 173.70367 | 16459 ft | 416 kts | 158° |
| 2026-05-07 03:09 | -36.41759 | 173.72288 | 15867 ft | 416 kts | 141° |
| 2026-05-07 03:09 | -36.43869 | 173.74724 | 15284 ft | 412 kts | 136° |
| 2026-05-07 03:09 | -36.45902 | 173.77226 | 14702 ft | 409 kts | 136° |
| 2026-05-07 03:10 | -36.47906 | 173.79703 | 14131 ft | 406 kts | 136° |
| 2026-05-07 03:10 | -36.49904 | 173.82162 | 13522 ft | 402 kts | 136° |
| 2026-05-07 03:10 | -36.51878 | 173.84580 | 13175 ft | 391 kts | 136° |
| 2026-05-07 03:10 | -36.53754 | 173.86874 | 13036 ft | 376 kts | 136° |
| 2026-05-07 03:11 | -36.55604 | 173.89136 | 12900 ft | 361 kts | 136° |
| 2026-05-07 03:11 | -36.57341 | 173.91258 | 12766 ft | 348 kts | 136° |
| 2026-05-07 03:11 | -36.59041 | 173.93334 | 12496 ft | 339 kts | 136° |
| 2026-05-07 03:11 | -36.60717 | 173.95382 | 12110 ft | 335 kts | 135° |
| 2026-05-07 03:12 | -36.62368 | 173.97400 | 11737 ft | 332 kts | 135° |
| 2026-05-07 03:12 | -36.64010 | 173.99407 | 11376 ft | 329 kts | 135° |
| 2026-05-07 03:12 | -36.65638 | 174.01399 | 11016 ft | 328 kts | 135° |
| 2026-05-07 03:12 | -36.67263 | 174.03388 | 10683 ft | 326 kts | 135° |
| 2026-05-07 03:13 | -36.68848 | 174.05329 | 10533 ft | 314 kts | 135° |
| 2026-05-07 03:13 | -36.70380 | 174.07208 | 10419 ft | 303 kts | 135° |
| 2026-05-07 03:13 | -36.71860 | 174.09023 | 10224 ft | 296 kts | 134° |
| 2026-05-07 03:13 | -36.73334 | 174.10832 | 9926 ft | 303 kts | 135° |
| 2026-05-07 03:14 | -36.74853 | 174.12694 | 9678 ft | 309 kts | 135° |
| 2026-05-07 03:14 | -36.76380 | 174.14571 | 9365 ft | 308 kts | 134° |
| 2026-05-07 03:14 | -36.79408 | 174.18299 | 8728 ft | 303 kts | 134° |
| 2026-05-07 03:15 | -36.80901 | 174.20138 | 8425 ft | 302 kts | 134° |
| 2026-05-07 03:15 | -36.82384 | 174.21965 | 8237 ft | 294 kts | 134° |
| 2026-05-07 03:15 | -36.83822 | 174.23737 | 7999 ft | 288 kts | 134° |
| 2026-05-07 03:15 | -36.85246 | 174.25492 | 7729 ft | 287 kts | 134° |
| 2026-05-07 03:16 | -36.86662 | 174.27240 | 7454 ft | 286 kts | 134° |
| 2026-05-07 03:16 | -36.88074 | 174.28982 | 7184 ft | 284 kts | 134° |
| 2026-05-07 03:16 | -36.89475 | 174.30713 | 6918 ft | 283 kts | 134° |
| 2026-05-07 03:16 | -36.90872 | 174.32437 | 6645 ft | 282 kts | 134° |
| 2026-05-07 03:17 | -36.92260 | 174.34152 | 6369 ft | 280 kts | 134° |
| 2026-05-07 03:17 | -36.93642 | 174.35862 | 6095 ft | 279 kts | 134° |
| 2026-05-07 03:17 | -36.95021 | 174.37570 | 5835 ft | 279 kts | 134° |
| 2026-05-07 03:17 | -36.96402 | 174.39270 | 5570 ft | 278 kts | 134° |
| 2026-05-07 03:18 | -36.97778 | 174.40960 | 5214 ft | 278 kts | 134° |
| 2026-05-07 03:18 | -36.99162 | 174.42663 | 4848 ft | 278 kts | 133° |
| 2026-05-07 03:18 | -37.00512 | 174.44329 | 4560 ft | 274 kts | 133° |
| 2026-05-07 03:18 | -37.01862 | 174.46001 | 4306 ft | 272 kts | 133° |
| 2026-05-07 03:19 | -37.03181 | 174.47636 | 4153 ft | 263 kts | 133° |
| 2026-05-07 03:19 | -37.04456 | 174.49218 | 3997 ft | 254 kts | 133° |
| 2026-05-07 03:19 | -37.05692 | 174.50753 | 3843 ft | 246 kts | 132° |
| 2026-05-07 03:19 | -37.06865 | 174.52263 | 3697 ft | 236 kts | 126° |
| 2026-05-07 03:20 | -37.07595 | 174.54023 | 3555 ft | 222 kts | 96° |
| 2026-05-07 03:20 | -37.07519 | 174.55837 | 3412 ft | 200 kts | 69° |
| 2026-05-07 03:20 | -37.07056 | 174.57421 | 3309 ft | 189 kts | 62° |
| 2026-05-07 03:20 | -37.06608 | 174.58936 | 3070 ft | 183 kts | 64° |
| 2026-05-07 03:21 | -37.06212 | 174.60430 | 2782 ft | 179 kts | 66° |
| 2026-05-07 03:21 | -37.05815 | 174.61900 | 2539 ft | 176 kts | 65° |
| 2026-05-07 03:21 | -37.05423 | 174.63312 | 2301 ft | 167 kts | 64° |
| 2026-05-07 03:21 | -37.05058 | 174.64645 | 2073 ft | 157 kts | 65° |
| 2026-05-07 03:22 | -37.04705 | 174.65921 | 1867 ft | 154 kts | 65° |
| 2026-05-07 03:22 | -37.04360 | 174.67176 | 1673 ft | 148 kts | 65° |
| 2026-05-07 03:22 | -37.04037 | 174.68355 | 1455 ft | 138 kts | 64° |
| 2026-05-07 03:22 | -37.03732 | 174.69456 | 1286 ft | 131 kts | 64° |
| 2026-05-07 03:23 | -37.03438 | 174.70527 | 1105 ft | 130 kts | 63° |
| 2026-05-07 03:23 | -37.03141 | 174.71594 | 942 ft | 130 kts | 65° |
| 2026-05-07 03:23 | -37.02850 | 174.72659 | 773 ft | 128 kts | 65° |
| 2026-05-07 03:23 | -37.02560 | 174.73707 | 612 ft | 127 kts | 66° |
| 2026-05-07 03:24 | -37.02272 | 174.74755 | 428 ft | 130 kts | 67° |
| 2026-05-07 03:24 | -37.01979 | 174.75810 | 252 ft | 127 kts | 66° |
| 2026-05-07 03:24 | -37.01703 | 174.76850 | 64 ft | 127 kts | 67° |
| 2026-05-07 03:24 | -37.01427 | 174.77855 | 35 ft | 115 kts | 65° |
| 2026-05-07 03:25 | -37.01206 | 174.78621 | 32 ft | 58 kts | 70° |
| 2026-05-07 03:25 | -37.01125 | 174.78858 | 32 ft | 22 kts | 60° |
| 2026-05-07 03:25 | -37.01035 | 174.78993 | 32 ft | 19 kts | 43° |
| 2026-05-07 03:25 | -37.00972 | 174.79063 | 32 ft | 9 kts | 41° |
| 2026-05-07 03:26 | -37.00935 | 174.79085 | 32 ft | 4 kts | 358° |
| 2026-05-07 03:26 | -37.00910 | 174.79066 | 32 ft | 6 kts | 310° |
| 2026-05-07 03:26 | -37.00905 | 174.79005 | 32 ft | 10 kts | 249° |
| 2026-05-07 03:26 | -37.00937 | 174.78899 | 32 ft | 16 kts | 250° |
| 2026-05-07 03:27 | -37.00981 | 174.78738 | 32 ft | 23 kts | 251° |
| 2026-05-07 03:27 | -37.01039 | 174.78529 | 32 ft | 28 kts | 251° |
| 2026-05-07 03:27 | -37.01093 | 174.78328 | 32 ft | 26 kts | 251° |
| 2026-05-07 03:27 | -37.01149 | 174.78126 | 32 ft | 25 kts | 251° |
| 2026-05-07 03:28 | -37.01205 | 174.77923 | 32 ft | 24 kts | 251° |
| 2026-05-07 03:28 | -37.01238 | 174.77778 | 32 ft | 9 kts | 276° |
| 2026-05-07 03:28 | -37.01205 | 174.77740 | 32 ft | 7 kts | 341° |
| 2026-05-07 03:28 | -37.01149 | 174.77717 | 32 ft | 10 kts | 341° |
| 2026-05-07 03:29 | -37.01086 | 174.77714 | 32 ft | 7 kts | 30° |
| 2026-05-07 03:29 | -37.01060 | 174.77765 | 32 ft | 8 kts | 69° |
| 2026-05-07 03:29 | -37.01028 | 174.77788 | 32 ft | 5 kts | 359° |
| 2026-05-07 03:29 | -37.00988 | 174.77772 | 32 ft | 8 kts | 340° |
| 2026-05-07 03:30 | -37.00963 | 174.77761 | 32 ft | 0 kts | 340° |
| 2026-05-07 03:30 | -37.00959 | 174.77759 | 32 ft | 2 kts | 340° |
| 2026-05-07 03:30 | -37.00952 | 174.77756 | 32 ft | 0 kts | 340° |